<?xml version="1.0" encoding="UTF-8" standalone="no" ?>
<gpx xmlns="http://www.topografix.com/GPX/1/1" xmlns:xsi="http://www.w3.org/2001/XMLSchema-instance" xsi:schemaLocation="http://www.topografix.com/GPX/1/1 http://www.topografix.com/GPX/1/1/gpx.xsd" version="1.1" creator="VisuGPX - https://www.visugpx.com">
  <metadata>
    <name>Gespunsard</name>
    <desc><![CDATA[Circuit Gespunsart , Bagimont , Pussemange ]]></desc>
  </metadata>
  <trk>
    <name><![CDATA[Gespunsard_1]]></name>
    <trkseg>
      <trkpt lat="49.82561" lon="4.83277">
        <ele>90.8</ele>
        <time>2021-04-23T11:18:19Z</time>
      </trkpt>
      <trkpt lat="49.82572" lon="4.8328">
        <ele>90.9</ele>
        <time>2021-04-23T11:18:37Z</time>
      </trkpt>
      <trkpt lat="49.82576" lon="4.83283">
        <ele>90.9</ele>
        <time>2021-04-23T11:18:38Z</time>
      </trkpt>
      <trkpt lat="49.82585" lon="4.83292">
        <ele>90.8</ele>
        <time>2021-04-23T11:18:40Z</time>
      </trkpt>
      <trkpt lat="49.82591" lon="4.83297">
        <ele>90.8</ele>
        <time>2021-04-23T11:18:43Z</time>
      </trkpt>
      <trkpt lat="49.82598" lon="4.83306">
        <ele>90.7</ele>
        <time>2021-04-23T11:18:46Z</time>
      </trkpt>
      <trkpt lat="49.82604" lon="4.83314">
        <ele>90.7</ele>
        <time>2021-04-23T11:18:48Z</time>
      </trkpt>
      <trkpt lat="49.8261" lon="4.8332">
        <ele>90.6</ele>
        <time>2021-04-23T11:18:51Z</time>
      </trkpt>
      <trkpt lat="49.82616" lon="4.83328">
        <ele>90.7</ele>
        <time>2021-04-23T11:18:54Z</time>
      </trkpt>
      <trkpt lat="49.82621" lon="4.83335">
        <ele>90.6</ele>
        <time>2021-04-23T11:18:57Z</time>
      </trkpt>
      <trkpt lat="49.82627" lon="4.83341">
        <ele>90.6</ele>
        <time>2021-04-23T11:19:00Z</time>
      </trkpt>
      <trkpt lat="49.82631" lon="4.83347">
        <ele>90.6</ele>
        <time>2021-04-23T11:19:03Z</time>
      </trkpt>
      <trkpt lat="49.82635" lon="4.83353">
        <ele>90.5</ele>
        <time>2021-04-23T11:19:05Z</time>
      </trkpt>
      <trkpt lat="49.82638" lon="4.8336">
        <ele>90.6</ele>
        <time>2021-04-23T11:19:07Z</time>
      </trkpt>
      <trkpt lat="49.8264" lon="4.83366">
        <ele>90.5</ele>
        <time>2021-04-23T11:19:09Z</time>
      </trkpt>
      <trkpt lat="49.82643" lon="4.83373">
        <ele>90.6</ele>
        <time>2021-04-23T11:19:11Z</time>
      </trkpt>
      <trkpt lat="49.82645" lon="4.8338">
        <ele>90.6</ele>
        <time>2021-04-23T11:19:13Z</time>
      </trkpt>
      <trkpt lat="49.82646" lon="4.83388">
        <ele>90.6</ele>
        <time>2021-04-23T11:19:16Z</time>
      </trkpt>
      <trkpt lat="49.82649" lon="4.83395">
        <ele>90.6</ele>
        <time>2021-04-23T11:19:18Z</time>
      </trkpt>
      <trkpt lat="49.82652" lon="4.83401">
        <ele>90.5</ele>
        <time>2021-04-23T11:19:21Z</time>
      </trkpt>
      <trkpt lat="49.82657" lon="4.83408">
        <ele>90.6</ele>
        <time>2021-04-23T11:19:25Z</time>
      </trkpt>
      <trkpt lat="49.82661" lon="4.83416">
        <ele>90.6</ele>
        <time>2021-04-23T11:19:27Z</time>
      </trkpt>
      <trkpt lat="49.82665" lon="4.83423">
        <ele>210.8</ele>
        <time>2021-04-23T11:19:29Z</time>
      </trkpt>
      <trkpt lat="49.82668" lon="4.83429">
        <ele>216.8</ele>
        <time>2021-04-23T11:19:32Z</time>
      </trkpt>
      <trkpt lat="49.82673" lon="4.83438">
        <ele>209.3</ele>
        <time>2021-04-23T11:19:34Z</time>
      </trkpt>
      <trkpt lat="49.82677" lon="4.83448">
        <ele>205.7</ele>
        <time>2021-04-23T11:19:38Z</time>
      </trkpt>
      <trkpt lat="49.82681" lon="4.83457">
        <ele>216.1</ele>
        <time>2021-04-23T11:19:41Z</time>
      </trkpt>
      <trkpt lat="49.82686" lon="4.83464">
        <ele>209.7</ele>
        <time>2021-04-23T11:19:43Z</time>
      </trkpt>
      <trkpt lat="49.8269" lon="4.83471">
        <ele>175.1</ele>
        <time>2021-04-23T11:19:46Z</time>
      </trkpt>
      <trkpt lat="49.82694" lon="4.83479">
        <ele>214.1</ele>
        <time>2021-04-23T11:19:48Z</time>
      </trkpt>
      <trkpt lat="49.82696" lon="4.83486">
        <ele>206</ele>
        <time>2021-04-23T11:19:51Z</time>
      </trkpt>
      <trkpt lat="49.82699" lon="4.83494">
        <ele>200.7</ele>
        <time>2021-04-23T11:19:55Z</time>
      </trkpt>
      <trkpt lat="49.82703" lon="4.83501">
        <ele>194.8</ele>
        <time>2021-04-23T11:19:59Z</time>
      </trkpt>
      <trkpt lat="49.82705" lon="4.83508">
        <ele>211.1</ele>
        <time>2021-04-23T11:20:02Z</time>
      </trkpt>
      <trkpt lat="49.82707" lon="4.83515">
        <ele>209.6</ele>
        <time>2021-04-23T11:20:05Z</time>
      </trkpt>
      <trkpt lat="49.82709" lon="4.83524">
        <ele>208.6</ele>
        <time>2021-04-23T11:20:09Z</time>
      </trkpt>
      <trkpt lat="49.82714" lon="4.83531">
        <ele>187.8</ele>
        <time>2021-04-23T11:20:13Z</time>
      </trkpt>
      <trkpt lat="49.82719" lon="4.83542">
        <ele>231</ele>
        <time>2021-04-23T11:20:18Z</time>
      </trkpt>
      <trkpt lat="49.82722" lon="4.8355">
        <ele>216.1</ele>
        <time>2021-04-23T11:20:20Z</time>
      </trkpt>
      <trkpt lat="49.82726" lon="4.8356">
        <ele>201.5</ele>
        <time>2021-04-23T11:20:24Z</time>
      </trkpt>
      <trkpt lat="49.82731" lon="4.83567">
        <ele>203.9</ele>
        <time>2021-04-23T11:20:27Z</time>
      </trkpt>
      <trkpt lat="49.82733" lon="4.83574">
        <ele>215.9</ele>
        <time>2021-04-23T11:20:29Z</time>
      </trkpt>
      <trkpt lat="49.82736" lon="4.83582">
        <ele>210</ele>
        <time>2021-04-23T11:20:31Z</time>
      </trkpt>
      <trkpt lat="49.8274" lon="4.8359">
        <ele>232.3</ele>
        <time>2021-04-23T11:20:35Z</time>
      </trkpt>
      <trkpt lat="49.82744" lon="4.83601">
        <ele>208.9</ele>
        <time>2021-04-23T11:20:39Z</time>
      </trkpt>
      <trkpt lat="49.82746" lon="4.83608">
        <ele>231.1</ele>
        <time>2021-04-23T11:20:43Z</time>
      </trkpt>
      <trkpt lat="49.82744" lon="4.83616">
        <ele>217.8</ele>
        <time>2021-04-23T11:21:07Z</time>
      </trkpt>
      <trkpt lat="49.8275" lon="4.83621">
        <ele>219</ele>
        <time>2021-04-23T11:21:11Z</time>
      </trkpt>
      <trkpt lat="49.82756" lon="4.83626">
        <ele>229.3</ele>
        <time>2021-04-23T11:21:14Z</time>
      </trkpt>
      <trkpt lat="49.8276" lon="4.83633">
        <ele>207.1</ele>
        <time>2021-04-23T11:21:17Z</time>
      </trkpt>
      <trkpt lat="49.82763" lon="4.8364">
        <ele>226.6</ele>
        <time>2021-04-23T11:21:19Z</time>
      </trkpt>
      <trkpt lat="49.82768" lon="4.83649">
        <ele>221.9</ele>
        <time>2021-04-23T11:21:22Z</time>
      </trkpt>
      <trkpt lat="49.82772" lon="4.83657">
        <ele>217.8</ele>
        <time>2021-04-23T11:21:25Z</time>
      </trkpt>
      <trkpt lat="49.82777" lon="4.83665">
        <ele>239.9</ele>
        <time>2021-04-23T11:21:29Z</time>
      </trkpt>
      <trkpt lat="49.82781" lon="4.83674">
        <ele>227.7</ele>
        <time>2021-04-23T11:21:32Z</time>
      </trkpt>
      <trkpt lat="49.82786" lon="4.83682">
        <ele>226.2</ele>
        <time>2021-04-23T11:21:35Z</time>
      </trkpt>
      <trkpt lat="49.82789" lon="4.83689">
        <ele>225.4</ele>
        <time>2021-04-23T11:21:38Z</time>
      </trkpt>
      <trkpt lat="49.82792" lon="4.83696">
        <ele>233.1</ele>
        <time>2021-04-23T11:21:40Z</time>
      </trkpt>
      <trkpt lat="49.82794" lon="4.83702">
        <ele>226.9</ele>
        <time>2021-04-23T11:21:42Z</time>
      </trkpt>
      <trkpt lat="49.82798" lon="4.83711">
        <ele>235.6</ele>
        <time>2021-04-23T11:21:45Z</time>
      </trkpt>
      <trkpt lat="49.82803" lon="4.8372">
        <ele>228.4</ele>
        <time>2021-04-23T11:21:48Z</time>
      </trkpt>
      <trkpt lat="49.82807" lon="4.83728">
        <ele>226.8</ele>
        <time>2021-04-23T11:21:51Z</time>
      </trkpt>
      <trkpt lat="49.8281" lon="4.83736">
        <ele>219.9</ele>
        <time>2021-04-23T11:21:53Z</time>
      </trkpt>
      <trkpt lat="49.82812" lon="4.83744">
        <ele>248.1</ele>
        <time>2021-04-23T11:21:56Z</time>
      </trkpt>
      <trkpt lat="49.82814" lon="4.83754">
        <ele>241.7</ele>
        <time>2021-04-23T11:21:59Z</time>
      </trkpt>
      <trkpt lat="49.82814" lon="4.83763">
        <ele>223.5</ele>
        <time>2021-04-23T11:22:02Z</time>
      </trkpt>
      <trkpt lat="49.82815" lon="4.83773">
        <ele>242.5</ele>
        <time>2021-04-23T11:22:05Z</time>
      </trkpt>
      <trkpt lat="49.82817" lon="4.83782">
        <ele>230.9</ele>
        <time>2021-04-23T11:22:08Z</time>
      </trkpt>
      <trkpt lat="49.82816" lon="4.8379">
        <ele>226.1</ele>
        <time>2021-04-23T11:22:10Z</time>
      </trkpt>
      <trkpt lat="49.82816" lon="4.83799">
        <ele>207.9</ele>
        <time>2021-04-23T11:22:12Z</time>
      </trkpt>
      <trkpt lat="49.82816" lon="4.83808">
        <ele>222.2</ele>
        <time>2021-04-23T11:22:14Z</time>
      </trkpt>
      <trkpt lat="49.82814" lon="4.83819">
        <ele>234.4</ele>
        <time>2021-04-23T11:22:18Z</time>
      </trkpt>
      <trkpt lat="49.82812" lon="4.83826">
        <ele>262.7</ele>
        <time>2021-04-23T11:22:48Z</time>
      </trkpt>
      <trkpt lat="49.8281" lon="4.83834">
        <ele>212.3</ele>
        <time>2021-04-23T11:23:08Z</time>
      </trkpt>
      <trkpt lat="49.82811" lon="4.83841">
        <ele>221</ele>
        <time>2021-04-23T11:23:11Z</time>
      </trkpt>
      <trkpt lat="49.8281" lon="4.83853">
        <ele>232.8</ele>
        <time>2021-04-23T11:23:14Z</time>
      </trkpt>
      <trkpt lat="49.82811" lon="4.83862">
        <ele>232.3</ele>
        <time>2021-04-23T11:23:17Z</time>
      </trkpt>
      <trkpt lat="49.82813" lon="4.83873">
        <ele>219.8</ele>
        <time>2021-04-23T11:23:20Z</time>
      </trkpt>
      <trkpt lat="49.82815" lon="4.83882">
        <ele>229.2</ele>
        <time>2021-04-23T11:23:22Z</time>
      </trkpt>
      <trkpt lat="49.82816" lon="4.83891">
        <ele>231.1</ele>
        <time>2021-04-23T11:23:25Z</time>
      </trkpt>
      <trkpt lat="49.82819" lon="4.83899">
        <ele>217</ele>
        <time>2021-04-23T11:23:28Z</time>
      </trkpt>
      <trkpt lat="49.82823" lon="4.83908">
        <ele>210.2</ele>
        <time>2021-04-23T11:23:31Z</time>
      </trkpt>
      <trkpt lat="49.82826" lon="4.83919">
        <ele>216</ele>
        <time>2021-04-23T11:23:35Z</time>
      </trkpt>
      <trkpt lat="49.82825" lon="4.83933">
        <ele>214.6</ele>
        <time>2021-04-23T11:23:39Z</time>
      </trkpt>
      <trkpt lat="49.82825" lon="4.83943">
        <ele>245.7</ele>
        <time>2021-04-23T11:23:42Z</time>
      </trkpt>
      <trkpt lat="49.82826" lon="4.83951">
        <ele>227.1</ele>
        <time>2021-04-23T11:23:45Z</time>
      </trkpt>
      <trkpt lat="49.82825" lon="4.83958">
        <ele>241.8</ele>
        <time>2021-04-23T11:23:47Z</time>
      </trkpt>
      <trkpt lat="49.82823" lon="4.83968">
        <ele>226.2</ele>
        <time>2021-04-23T11:23:50Z</time>
      </trkpt>
      <trkpt lat="49.82822" lon="4.83976">
        <ele>215.7</ele>
        <time>2021-04-23T11:23:56Z</time>
      </trkpt>
      <trkpt lat="49.8282" lon="4.83983">
        <ele>242.7</ele>
        <time>2021-04-23T11:24:12Z</time>
      </trkpt>
      <trkpt lat="49.82819" lon="4.83989">
        <ele>252.6</ele>
        <time>2021-04-23T11:24:25Z</time>
      </trkpt>
      <trkpt lat="49.82815" lon="4.83997">
        <ele>243.5</ele>
        <time>2021-04-23T11:24:30Z</time>
      </trkpt>
      <trkpt lat="49.82812" lon="4.84003">
        <ele>223.3</ele>
        <time>2021-04-23T11:24:33Z</time>
      </trkpt>
      <trkpt lat="49.82811" lon="4.84011">
        <ele>244.3</ele>
        <time>2021-04-23T11:24:36Z</time>
      </trkpt>
      <trkpt lat="49.8281" lon="4.84021">
        <ele>227.9</ele>
        <time>2021-04-23T11:24:40Z</time>
      </trkpt>
      <trkpt lat="49.82807" lon="4.84034">
        <ele>220.9</ele>
        <time>2021-04-23T11:24:43Z</time>
      </trkpt>
      <trkpt lat="49.82804" lon="4.8404">
        <ele>233.2</ele>
        <time>2021-04-23T11:24:47Z</time>
      </trkpt>
      <trkpt lat="49.828" lon="4.84046">
        <ele>219.3</ele>
        <time>2021-04-23T11:24:50Z</time>
      </trkpt>
      <trkpt lat="49.82796" lon="4.84054">
        <ele>234.1</ele>
        <time>2021-04-23T11:24:53Z</time>
      </trkpt>
      <trkpt lat="49.82793" lon="4.84062">
        <ele>201.1</ele>
        <time>2021-04-23T11:24:56Z</time>
      </trkpt>
      <trkpt lat="49.8279" lon="4.84071">
        <ele>225.4</ele>
        <time>2021-04-23T11:24:59Z</time>
      </trkpt>
      <trkpt lat="49.82787" lon="4.84081">
        <ele>213.3</ele>
        <time>2021-04-23T11:25:02Z</time>
      </trkpt>
      <trkpt lat="49.82785" lon="4.8409">
        <ele>226.7</ele>
        <time>2021-04-23T11:25:04Z</time>
      </trkpt>
      <trkpt lat="49.82782" lon="4.84098">
        <ele>223.6</ele>
        <time>2021-04-23T11:25:07Z</time>
      </trkpt>
      <trkpt lat="49.8278" lon="4.84105">
        <ele>227.3</ele>
        <time>2021-04-23T11:25:08Z</time>
      </trkpt>
      <trkpt lat="49.82777" lon="4.84112">
        <ele>227.3</ele>
        <time>2021-04-23T11:25:11Z</time>
      </trkpt>
      <trkpt lat="49.82772" lon="4.84122">
        <ele>227.3</ele>
        <time>2021-04-23T11:25:15Z</time>
      </trkpt>
      <trkpt lat="49.82768" lon="4.84133">
        <ele>227.4</ele>
        <time>2021-04-23T11:25:19Z</time>
      </trkpt>
      <trkpt lat="49.82765" lon="4.8414">
        <ele>227.4</ele>
        <time>2021-04-23T11:25:21Z</time>
      </trkpt>
      <trkpt lat="49.82761" lon="4.84146">
        <ele>227.5</ele>
        <time>2021-04-23T11:25:25Z</time>
      </trkpt>
      <trkpt lat="49.82756" lon="4.84154">
        <ele>227.5</ele>
        <time>2021-04-23T11:25:29Z</time>
      </trkpt>
      <trkpt lat="49.82752" lon="4.84162">
        <ele>227.4</ele>
        <time>2021-04-23T11:25:32Z</time>
      </trkpt>
      <trkpt lat="49.82751" lon="4.84169">
        <ele>227.3</ele>
        <time>2021-04-23T11:25:35Z</time>
      </trkpt>
      <trkpt lat="49.82751" lon="4.8418">
        <ele>227.4</ele>
        <time>2021-04-23T11:25:38Z</time>
      </trkpt>
      <trkpt lat="49.8275" lon="4.84188">
        <ele>227.4</ele>
        <time>2021-04-23T11:25:40Z</time>
      </trkpt>
      <trkpt lat="49.82749" lon="4.84195">
        <ele>227.4</ele>
        <time>2021-04-23T11:25:42Z</time>
      </trkpt>
      <trkpt lat="49.82746" lon="4.84206">
        <ele>227.4</ele>
        <time>2021-04-23T11:25:46Z</time>
      </trkpt>
      <trkpt lat="49.82743" lon="4.84214">
        <ele>227.5</ele>
        <time>2021-04-23T11:25:48Z</time>
      </trkpt>
      <trkpt lat="49.82741" lon="4.8422">
        <ele>227.5</ele>
        <time>2021-04-23T11:25:50Z</time>
      </trkpt>
      <trkpt lat="49.82737" lon="4.84227">
        <ele>227.5</ele>
        <time>2021-04-23T11:25:54Z</time>
      </trkpt>
      <trkpt lat="49.82734" lon="4.84232">
        <ele>227.6</ele>
        <time>2021-04-23T11:26:03Z</time>
      </trkpt>
      <trkpt lat="49.82732" lon="4.84238">
        <ele>227.5</ele>
        <time>2021-04-23T11:26:14Z</time>
      </trkpt>
      <trkpt lat="49.82732" lon="4.84246">
        <ele>227.7</ele>
        <time>2021-04-23T11:26:27Z</time>
      </trkpt>
      <trkpt lat="49.82728" lon="4.84248">
        <ele>215.5</ele>
        <time>2021-04-23T11:26:50Z</time>
      </trkpt>
      <trkpt lat="49.82728" lon="4.84256">
        <ele>222.8</ele>
        <time>2021-04-23T11:27:10Z</time>
      </trkpt>
      <trkpt lat="49.82726" lon="4.84262">
        <ele>242</ele>
        <time>2021-04-23T11:27:16Z</time>
      </trkpt>
      <trkpt lat="49.82726" lon="4.84271">
        <ele>247.1</ele>
        <time>2021-04-23T11:27:36Z</time>
      </trkpt>
      <trkpt lat="49.82724" lon="4.84279">
        <ele>244.5</ele>
        <time>2021-04-23T11:27:40Z</time>
      </trkpt>
      <trkpt lat="49.82722" lon="4.84287">
        <ele>240.9</ele>
        <time>2021-04-23T11:27:44Z</time>
      </trkpt>
      <trkpt lat="49.82723" lon="4.84295">
        <ele>231.6</ele>
        <time>2021-04-23T11:27:48Z</time>
      </trkpt>
      <trkpt lat="49.82724" lon="4.84304">
        <ele>210.6</ele>
        <time>2021-04-23T11:27:51Z</time>
      </trkpt>
      <trkpt lat="49.82726" lon="4.84314">
        <ele>223.3</ele>
        <time>2021-04-23T11:27:56Z</time>
      </trkpt>
      <trkpt lat="49.82726" lon="4.84322">
        <ele>220.5</ele>
        <time>2021-04-23T11:27:59Z</time>
      </trkpt>
      <trkpt lat="49.82727" lon="4.84328">
        <ele>204.9</ele>
        <time>2021-04-23T11:28:01Z</time>
      </trkpt>
      <trkpt lat="49.82732" lon="4.84334">
        <ele>249</ele>
        <time>2021-04-23T11:28:05Z</time>
      </trkpt>
      <trkpt lat="49.82737" lon="4.84337">
        <ele>232.7</ele>
        <time>2021-04-23T11:28:07Z</time>
      </trkpt>
      <trkpt lat="49.82742" lon="4.84342">
        <ele>246.5</ele>
        <time>2021-04-23T11:28:09Z</time>
      </trkpt>
      <trkpt lat="49.82746" lon="4.84347">
        <ele>216.4</ele>
        <time>2021-04-23T11:28:11Z</time>
      </trkpt>
      <trkpt lat="49.82749" lon="4.84355">
        <ele>221.4</ele>
        <time>2021-04-23T11:28:13Z</time>
      </trkpt>
      <trkpt lat="49.82752" lon="4.84362">
        <ele>236.7</ele>
        <time>2021-04-23T11:28:16Z</time>
      </trkpt>
      <trkpt lat="49.82755" lon="4.84369">
        <ele>240.1</ele>
        <time>2021-04-23T11:28:19Z</time>
      </trkpt>
      <trkpt lat="49.82757" lon="4.84376">
        <ele>225.5</ele>
        <time>2021-04-23T11:28:20Z</time>
      </trkpt>
      <trkpt lat="49.8276" lon="4.84382">
        <ele>238.9</ele>
        <time>2021-04-23T11:28:22Z</time>
      </trkpt>
      <trkpt lat="49.82762" lon="4.84393">
        <ele>227.7</ele>
        <time>2021-04-23T11:28:26Z</time>
      </trkpt>
      <trkpt lat="49.82764" lon="4.844">
        <ele>231.6</ele>
        <time>2021-04-23T11:28:29Z</time>
      </trkpt>
      <trkpt lat="49.82766" lon="4.84407">
        <ele>254.5</ele>
        <time>2021-04-23T11:28:32Z</time>
      </trkpt>
      <trkpt lat="49.82769" lon="4.84414">
        <ele>251.5</ele>
        <time>2021-04-23T11:28:36Z</time>
      </trkpt>
      <trkpt lat="49.82774" lon="4.84423">
        <ele>230.7</ele>
        <time>2021-04-23T11:28:40Z</time>
      </trkpt>
      <trkpt lat="49.82778" lon="4.8443">
        <ele>220.5</ele>
        <time>2021-04-23T11:28:44Z</time>
      </trkpt>
      <trkpt lat="49.82781" lon="4.84437">
        <ele>248.3</ele>
        <time>2021-04-23T11:28:47Z</time>
      </trkpt>
      <trkpt lat="49.82783" lon="4.84443">
        <ele>240.3</ele>
        <time>2021-04-23T11:28:54Z</time>
      </trkpt>
      <trkpt lat="49.82787" lon="4.84448">
        <ele>229.8</ele>
        <time>2021-04-23T11:29:05Z</time>
      </trkpt>
      <trkpt lat="49.82789" lon="4.84455">
        <ele>226.2</ele>
        <time>2021-04-23T11:29:14Z</time>
      </trkpt>
      <trkpt lat="49.82788" lon="4.84463">
        <ele>230.8</ele>
        <time>2021-04-23T11:29:23Z</time>
      </trkpt>
      <trkpt lat="49.82785" lon="4.8447">
        <ele>218.6</ele>
        <time>2021-04-23T11:29:38Z</time>
      </trkpt>
      <trkpt lat="49.82784" lon="4.84479">
        <ele>236.6</ele>
        <time>2021-04-23T11:29:50Z</time>
      </trkpt>
      <trkpt lat="49.8278" lon="4.84483">
        <ele>237.1</ele>
        <time>2021-04-23T11:29:56Z</time>
      </trkpt>
      <trkpt lat="49.82776" lon="4.84493">
        <ele>244.5</ele>
        <time>2021-04-23T11:30:08Z</time>
      </trkpt>
      <trkpt lat="49.82774" lon="4.845">
        <ele>236.8</ele>
        <time>2021-04-23T11:30:15Z</time>
      </trkpt>
      <trkpt lat="49.82773" lon="4.84508">
        <ele>249.3</ele>
        <time>2021-04-23T11:31:21Z</time>
      </trkpt>
      <trkpt lat="49.82769" lon="4.84512">
        <ele>251.6</ele>
        <time>2021-04-23T11:31:36Z</time>
      </trkpt>
      <trkpt lat="49.82774" lon="4.84516">
        <ele>275.3</ele>
        <time>2021-04-23T11:32:06Z</time>
      </trkpt>
      <trkpt lat="49.8278" lon="4.84516">
        <ele>256.5</ele>
        <time>2021-04-23T11:32:09Z</time>
      </trkpt>
      <trkpt lat="49.82786" lon="4.8452">
        <ele>247.8</ele>
        <time>2021-04-23T11:32:13Z</time>
      </trkpt>
      <trkpt lat="49.82789" lon="4.84527">
        <ele>265</ele>
        <time>2021-04-23T11:32:15Z</time>
      </trkpt>
      <trkpt lat="49.82792" lon="4.84535">
        <ele>292.1</ele>
        <time>2021-04-23T11:32:17Z</time>
      </trkpt>
      <trkpt lat="49.82794" lon="4.84544">
        <ele>257.3</ele>
        <time>2021-04-23T11:32:22Z</time>
      </trkpt>
      <trkpt lat="49.82799" lon="4.84552">
        <ele>268.5</ele>
        <time>2021-04-23T11:32:27Z</time>
      </trkpt>
      <trkpt lat="49.82803" lon="4.84556">
        <ele>258.5</ele>
        <time>2021-04-23T11:32:30Z</time>
      </trkpt>
      <trkpt lat="49.82815" lon="4.84572">
        <ele>251</ele>
        <time>2021-04-23T11:32:38Z</time>
      </trkpt>
      <trkpt lat="49.82818" lon="4.84578">
        <ele>262.3</ele>
        <time>2021-04-23T11:32:40Z</time>
      </trkpt>
      <trkpt lat="49.8282" lon="4.84588">
        <ele>256</ele>
        <time>2021-04-23T11:32:44Z</time>
      </trkpt>
      <trkpt lat="49.82826" lon="4.8463">
        <ele>237.8</ele>
        <time>2021-04-23T11:32:55Z</time>
      </trkpt>
      <trkpt lat="49.82829" lon="4.84638">
        <ele>271.9</ele>
        <time>2021-04-23T11:32:59Z</time>
      </trkpt>
      <trkpt lat="49.82831" lon="4.84645">
        <ele>245.8</ele>
        <time>2021-04-23T11:33:02Z</time>
      </trkpt>
      <trkpt lat="49.82834" lon="4.84652">
        <ele>261.8</ele>
        <time>2021-04-23T11:33:04Z</time>
      </trkpt>
      <trkpt lat="49.82836" lon="4.84658">
        <ele>256.8</ele>
        <time>2021-04-23T11:33:07Z</time>
      </trkpt>
      <trkpt lat="49.82839" lon="4.84667">
        <ele>251.5</ele>
        <time>2021-04-23T11:33:09Z</time>
      </trkpt>
      <trkpt lat="49.82841" lon="4.84673">
        <ele>267.3</ele>
        <time>2021-04-23T11:33:12Z</time>
      </trkpt>
      <trkpt lat="49.82843" lon="4.84685">
        <ele>269.9</ele>
        <time>2021-04-23T11:33:15Z</time>
      </trkpt>
      <trkpt lat="49.82845" lon="4.84693">
        <ele>250</ele>
        <time>2021-04-23T11:33:17Z</time>
      </trkpt>
      <trkpt lat="49.8285" lon="4.84701">
        <ele>261.2</ele>
        <time>2021-04-23T11:33:20Z</time>
      </trkpt>
      <trkpt lat="49.82852" lon="4.84707">
        <ele>272.8</ele>
        <time>2021-04-23T11:33:31Z</time>
      </trkpt>
      <trkpt lat="49.82854" lon="4.84714">
        <ele>259.1</ele>
        <time>2021-04-23T11:34:10Z</time>
      </trkpt>
      <trkpt lat="49.82854" lon="4.84726">
        <ele>269.4</ele>
        <time>2021-04-23T11:34:14Z</time>
      </trkpt>
      <trkpt lat="49.82856" lon="4.84735">
        <ele>256.6</ele>
        <time>2021-04-23T11:34:17Z</time>
      </trkpt>
      <trkpt lat="49.82857" lon="4.84742">
        <ele>273.6</ele>
        <time>2021-04-23T11:34:21Z</time>
      </trkpt>
      <trkpt lat="49.82861" lon="4.84749">
        <ele>257</ele>
        <time>2021-04-23T11:34:25Z</time>
      </trkpt>
      <trkpt lat="49.82863" lon="4.84755">
        <ele>256.9</ele>
        <time>2021-04-23T11:34:28Z</time>
      </trkpt>
      <trkpt lat="49.82867" lon="4.8476">
        <ele>275.3</ele>
        <time>2021-04-23T11:34:32Z</time>
      </trkpt>
      <trkpt lat="49.82871" lon="4.84766">
        <ele>267.2</ele>
        <time>2021-04-23T11:34:36Z</time>
      </trkpt>
      <trkpt lat="49.82874" lon="4.84775">
        <ele>265.7</ele>
        <time>2021-04-23T11:34:39Z</time>
      </trkpt>
      <trkpt lat="49.82876" lon="4.84786">
        <ele>266</ele>
        <time>2021-04-23T11:34:43Z</time>
      </trkpt>
      <trkpt lat="49.82877" lon="4.84796">
        <ele>267.1</ele>
        <time>2021-04-23T11:34:46Z</time>
      </trkpt>
      <trkpt lat="49.82877" lon="4.84805">
        <ele>273.9</ele>
        <time>2021-04-23T11:34:49Z</time>
      </trkpt>
      <trkpt lat="49.82879" lon="4.84817">
        <ele>267</ele>
        <time>2021-04-23T11:34:53Z</time>
      </trkpt>
      <trkpt lat="49.82882" lon="4.84823">
        <ele>259.7</ele>
        <time>2021-04-23T11:36:27Z</time>
      </trkpt>
      <trkpt lat="49.82882" lon="4.8483">
        <ele>258</ele>
        <time>2021-04-23T11:36:45Z</time>
      </trkpt>
      <trkpt lat="49.82881" lon="4.84838">
        <ele>274.4</ele>
        <time>2021-04-23T11:37:05Z</time>
      </trkpt>
      <trkpt lat="49.82879" lon="4.84846">
        <ele>273.5</ele>
        <time>2021-04-23T11:37:42Z</time>
      </trkpt>
      <trkpt lat="49.82878" lon="4.84854">
        <ele>296.1</ele>
        <time>2021-04-23T11:37:52Z</time>
      </trkpt>
      <trkpt lat="49.82878" lon="4.84864">
        <ele>278.9</ele>
        <time>2021-04-23T11:37:57Z</time>
      </trkpt>
      <trkpt lat="49.82879" lon="4.84873">
        <ele>290.7</ele>
        <time>2021-04-23T11:38:00Z</time>
      </trkpt>
      <trkpt lat="49.82881" lon="4.84884">
        <ele>304.9</ele>
        <time>2021-04-23T11:38:03Z</time>
      </trkpt>
      <trkpt lat="49.82883" lon="4.84892">
        <ele>270.1</ele>
        <time>2021-04-23T11:38:07Z</time>
      </trkpt>
      <trkpt lat="49.82886" lon="4.849">
        <ele>280.2</ele>
        <time>2021-04-23T11:38:10Z</time>
      </trkpt>
      <trkpt lat="49.82891" lon="4.84907">
        <ele>299.4</ele>
        <time>2021-04-23T11:38:14Z</time>
      </trkpt>
      <trkpt lat="49.82895" lon="4.84914">
        <ele>289.3</ele>
        <time>2021-04-23T11:38:17Z</time>
      </trkpt>
      <trkpt lat="49.82899" lon="4.84922">
        <ele>272.5</ele>
        <time>2021-04-23T11:38:20Z</time>
      </trkpt>
      <trkpt lat="49.82902" lon="4.84932">
        <ele>284.2</ele>
        <time>2021-04-23T11:38:24Z</time>
      </trkpt>
      <trkpt lat="49.82905" lon="4.84941">
        <ele>246.1</ele>
        <time>2021-04-23T11:38:27Z</time>
      </trkpt>
      <trkpt lat="49.82906" lon="4.84951">
        <ele>272.1</ele>
        <time>2021-04-23T11:38:31Z</time>
      </trkpt>
      <trkpt lat="49.82906" lon="4.84959">
        <ele>295.4</ele>
        <time>2021-04-23T11:38:35Z</time>
      </trkpt>
      <trkpt lat="49.82908" lon="4.84968">
        <ele>284</ele>
        <time>2021-04-23T11:38:39Z</time>
      </trkpt>
      <trkpt lat="49.8291" lon="4.84977">
        <ele>277.3</ele>
        <time>2021-04-23T11:38:44Z</time>
      </trkpt>
      <trkpt lat="49.82911" lon="4.84986">
        <ele>292.9</ele>
        <time>2021-04-23T11:38:47Z</time>
      </trkpt>
      <trkpt lat="49.82908" lon="4.84997">
        <ele>276.2</ele>
        <time>2021-04-23T11:38:52Z</time>
      </trkpt>
      <trkpt lat="49.82903" lon="4.85002">
        <ele>270.6</ele>
        <time>2021-04-23T11:38:55Z</time>
      </trkpt>
      <trkpt lat="49.82899" lon="4.85007">
        <ele>289.2</ele>
        <time>2021-04-23T11:38:58Z</time>
      </trkpt>
      <trkpt lat="49.82894" lon="4.85014">
        <ele>296.8</ele>
        <time>2021-04-23T11:39:02Z</time>
      </trkpt>
      <trkpt lat="49.8289" lon="4.85021">
        <ele>287</ele>
        <time>2021-04-23T11:39:05Z</time>
      </trkpt>
      <trkpt lat="49.82888" lon="4.85028">
        <ele>306.3</ele>
        <time>2021-04-23T11:39:09Z</time>
      </trkpt>
      <trkpt lat="49.82883" lon="4.85035">
        <ele>300.5</ele>
        <time>2021-04-23T11:39:13Z</time>
      </trkpt>
      <trkpt lat="49.82878" lon="4.85039">
        <ele>295.5</ele>
        <time>2021-04-23T11:39:17Z</time>
      </trkpt>
      <trkpt lat="49.82877" lon="4.85047">
        <ele>297</ele>
        <time>2021-04-23T11:39:20Z</time>
      </trkpt>
      <trkpt lat="49.82874" lon="4.85053">
        <ele>284.2</ele>
        <time>2021-04-23T11:39:24Z</time>
      </trkpt>
      <trkpt lat="49.8287" lon="4.85061">
        <ele>292.1</ele>
        <time>2021-04-23T11:39:30Z</time>
      </trkpt>
      <trkpt lat="49.82866" lon="4.85069">
        <ele>295.7</ele>
        <time>2021-04-23T11:39:34Z</time>
      </trkpt>
      <trkpt lat="49.82863" lon="4.85075">
        <ele>282.6</ele>
        <time>2021-04-23T11:39:36Z</time>
      </trkpt>
      <trkpt lat="49.82859" lon="4.85081">
        <ele>304.9</ele>
        <time>2021-04-23T11:39:40Z</time>
      </trkpt>
      <trkpt lat="49.82856" lon="4.85088">
        <ele>308.1</ele>
        <time>2021-04-23T11:39:43Z</time>
      </trkpt>
      <trkpt lat="49.82854" lon="4.85096">
        <ele>291.7</ele>
        <time>2021-04-23T11:39:46Z</time>
      </trkpt>
      <trkpt lat="49.8285" lon="4.85103">
        <ele>298.3</ele>
        <time>2021-04-23T11:39:50Z</time>
      </trkpt>
      <trkpt lat="49.82847" lon="4.85109">
        <ele>301.9</ele>
        <time>2021-04-23T11:39:53Z</time>
      </trkpt>
      <trkpt lat="49.82843" lon="4.85115">
        <ele>319.8</ele>
        <time>2021-04-23T11:39:57Z</time>
      </trkpt>
      <trkpt lat="49.82838" lon="4.85123">
        <ele>322</ele>
        <time>2021-04-23T11:40:01Z</time>
      </trkpt>
      <trkpt lat="49.82836" lon="4.85131">
        <ele>312.7</ele>
        <time>2021-04-23T11:40:04Z</time>
      </trkpt>
      <trkpt lat="49.82834" lon="4.8514">
        <ele>307.5</ele>
        <time>2021-04-23T11:40:07Z</time>
      </trkpt>
      <trkpt lat="49.82832" lon="4.85146">
        <ele>298.8</ele>
        <time>2021-04-23T11:40:10Z</time>
      </trkpt>
      <trkpt lat="49.82829" lon="4.85153">
        <ele>301</ele>
        <time>2021-04-23T11:40:12Z</time>
      </trkpt>
      <trkpt lat="49.82826" lon="4.85159">
        <ele>310.1</ele>
        <time>2021-04-23T11:40:15Z</time>
      </trkpt>
      <trkpt lat="49.82823" lon="4.85167">
        <ele>289.4</ele>
        <time>2021-04-23T11:40:18Z</time>
      </trkpt>
      <trkpt lat="49.8282" lon="4.85176">
        <ele>315.3</ele>
        <time>2021-04-23T11:40:21Z</time>
      </trkpt>
      <trkpt lat="49.82817" lon="4.85185">
        <ele>316.4</ele>
        <time>2021-04-23T11:40:23Z</time>
      </trkpt>
      <trkpt lat="49.82814" lon="4.85193">
        <ele>317.8</ele>
        <time>2021-04-23T11:40:26Z</time>
      </trkpt>
      <trkpt lat="49.82812" lon="4.85204">
        <ele>305.2</ele>
        <time>2021-04-23T11:40:29Z</time>
      </trkpt>
      <trkpt lat="49.8281" lon="4.85214">
        <ele>311.3</ele>
        <time>2021-04-23T11:40:33Z</time>
      </trkpt>
      <trkpt lat="49.82809" lon="4.85223">
        <ele>308.7</ele>
        <time>2021-04-23T11:40:35Z</time>
      </trkpt>
      <trkpt lat="49.82809" lon="4.85232">
        <ele>308.5</ele>
        <time>2021-04-23T11:40:38Z</time>
      </trkpt>
      <trkpt lat="49.8281" lon="4.85242">
        <ele>297.7</ele>
        <time>2021-04-23T11:40:41Z</time>
      </trkpt>
      <trkpt lat="49.82811" lon="4.85253">
        <ele>312.9</ele>
        <time>2021-04-23T11:40:45Z</time>
      </trkpt>
      <trkpt lat="49.82813" lon="4.85262">
        <ele>319</ele>
        <time>2021-04-23T11:40:48Z</time>
      </trkpt>
      <trkpt lat="49.82816" lon="4.85271">
        <ele>308.5</ele>
        <time>2021-04-23T11:40:51Z</time>
      </trkpt>
      <trkpt lat="49.82816" lon="4.85281">
        <ele>318.6</ele>
        <time>2021-04-23T11:40:54Z</time>
      </trkpt>
      <trkpt lat="49.82816" lon="4.85288">
        <ele>325.4</ele>
        <time>2021-04-23T11:40:57Z</time>
      </trkpt>
      <trkpt lat="49.82816" lon="4.85295">
        <ele>309.3</ele>
        <time>2021-04-23T11:41:04Z</time>
      </trkpt>
      <trkpt lat="49.82813" lon="4.85303">
        <ele>331.6</ele>
        <time>2021-04-23T11:41:24Z</time>
      </trkpt>
      <trkpt lat="49.82809" lon="4.85305">
        <ele>326.7</ele>
        <time>2021-04-23T11:41:35Z</time>
      </trkpt>
      <trkpt lat="49.82805" lon="4.85311">
        <ele>340.1</ele>
        <time>2021-04-23T11:42:07Z</time>
      </trkpt>
      <trkpt lat="49.82803" lon="4.85319">
        <ele>321</ele>
        <time>2021-04-23T11:42:26Z</time>
      </trkpt>
      <trkpt lat="49.82802" lon="4.85326">
        <ele>341.9</ele>
        <time>2021-04-23T11:42:37Z</time>
      </trkpt>
      <trkpt lat="49.82801" lon="4.85334">
        <ele>342.7</ele>
        <time>2021-04-23T11:42:49Z</time>
      </trkpt>
      <trkpt lat="49.82802" lon="4.85341">
        <ele>352.8</ele>
        <time>2021-04-23T11:43:20Z</time>
      </trkpt>
      <trkpt lat="49.82805" lon="4.85349">
        <ele>340</ele>
        <time>2021-04-23T11:43:25Z</time>
      </trkpt>
      <trkpt lat="49.82812" lon="4.85351">
        <ele>341.3</ele>
        <time>2021-04-23T11:43:28Z</time>
      </trkpt>
      <trkpt lat="49.82816" lon="4.85354">
        <ele>324</ele>
        <time>2021-04-23T11:43:30Z</time>
      </trkpt>
      <trkpt lat="49.82822" lon="4.8536">
        <ele>339.7</ele>
        <time>2021-04-23T11:43:32Z</time>
      </trkpt>
      <trkpt lat="49.82829" lon="4.85366">
        <ele>315.4</ele>
        <time>2021-04-23T11:43:35Z</time>
      </trkpt>
      <trkpt lat="49.82836" lon="4.85372">
        <ele>341.2</ele>
        <time>2021-04-23T11:43:37Z</time>
      </trkpt>
      <trkpt lat="49.82844" lon="4.8538">
        <ele>337.9</ele>
        <time>2021-04-23T11:43:39Z</time>
      </trkpt>
      <trkpt lat="49.82848" lon="4.85387">
        <ele>328.9</ele>
        <time>2021-04-23T11:43:40Z</time>
      </trkpt>
      <trkpt lat="49.82855" lon="4.85398">
        <ele>319.9</ele>
        <time>2021-04-23T11:43:42Z</time>
      </trkpt>
      <trkpt lat="49.82858" lon="4.85405">
        <ele>301</ele>
        <time>2021-04-23T11:43:43Z</time>
      </trkpt>
      <trkpt lat="49.82863" lon="4.85412">
        <ele>326.3</ele>
        <time>2021-04-23T11:43:44Z</time>
      </trkpt>
      <trkpt lat="49.8287" lon="4.85428">
        <ele>336.1</ele>
        <time>2021-04-23T11:43:46Z</time>
      </trkpt>
      <trkpt lat="49.82878" lon="4.85445">
        <ele>314.3</ele>
        <time>2021-04-23T11:43:48Z</time>
      </trkpt>
      <trkpt lat="49.82883" lon="4.85464">
        <ele>314.1</ele>
        <time>2021-04-23T11:43:50Z</time>
      </trkpt>
      <trkpt lat="49.82886" lon="4.85484">
        <ele>326.2</ele>
        <time>2021-04-23T11:43:52Z</time>
      </trkpt>
      <trkpt lat="49.8289" lon="4.85501">
        <ele>322.2</ele>
        <time>2021-04-23T11:43:54Z</time>
      </trkpt>
      <trkpt lat="49.82895" lon="4.85518">
        <ele>312.3</ele>
        <time>2021-04-23T11:43:56Z</time>
      </trkpt>
      <trkpt lat="49.82897" lon="4.85526">
        <ele>316.2</ele>
        <time>2021-04-23T11:43:57Z</time>
      </trkpt>
      <trkpt lat="49.829" lon="4.85536">
        <ele>327.4</ele>
        <time>2021-04-23T11:43:58Z</time>
      </trkpt>
      <trkpt lat="49.82905" lon="4.85561">
        <ele>317.6</ele>
        <time>2021-04-23T11:44:00Z</time>
      </trkpt>
      <trkpt lat="49.82909" lon="4.85585">
        <ele>324.9</ele>
        <time>2021-04-23T11:44:02Z</time>
      </trkpt>
      <trkpt lat="49.82912" lon="4.85598">
        <ele>333.5</ele>
        <time>2021-04-23T11:44:03Z</time>
      </trkpt>
      <trkpt lat="49.82917" lon="4.85622">
        <ele>327.9</ele>
        <time>2021-04-23T11:44:05Z</time>
      </trkpt>
      <trkpt lat="49.8292" lon="4.85633">
        <ele>315.7</ele>
        <time>2021-04-23T11:44:06Z</time>
      </trkpt>
      <trkpt lat="49.82924" lon="4.85645">
        <ele>336.6</ele>
        <time>2021-04-23T11:44:07Z</time>
      </trkpt>
      <trkpt lat="49.82933" lon="4.85667">
        <ele>312.1</ele>
        <time>2021-04-23T11:44:09Z</time>
      </trkpt>
      <trkpt lat="49.82939" lon="4.85677">
        <ele>332.4</ele>
        <time>2021-04-23T11:44:10Z</time>
      </trkpt>
      <trkpt lat="49.8295" lon="4.85695">
        <ele>330.3</ele>
        <time>2021-04-23T11:44:12Z</time>
      </trkpt>
      <trkpt lat="49.82961" lon="4.85716">
        <ele>340.6</ele>
        <time>2021-04-23T11:44:14Z</time>
      </trkpt>
      <trkpt lat="49.82971" lon="4.85736">
        <ele>312.3</ele>
        <time>2021-04-23T11:44:16Z</time>
      </trkpt>
      <trkpt lat="49.82977" lon="4.85756">
        <ele>316.4</ele>
        <time>2021-04-23T11:44:18Z</time>
      </trkpt>
      <trkpt lat="49.8298" lon="4.85774">
        <ele>326.4</ele>
        <time>2021-04-23T11:44:20Z</time>
      </trkpt>
      <trkpt lat="49.82981" lon="4.85784">
        <ele>308.2</ele>
        <time>2021-04-23T11:44:21Z</time>
      </trkpt>
      <trkpt lat="49.82981" lon="4.85794">
        <ele>313.9</ele>
        <time>2021-04-23T11:44:22Z</time>
      </trkpt>
      <trkpt lat="49.8298" lon="4.85815">
        <ele>329.6</ele>
        <time>2021-04-23T11:44:24Z</time>
      </trkpt>
      <trkpt lat="49.82979" lon="4.85825">
        <ele>346.5</ele>
        <time>2021-04-23T11:44:25Z</time>
      </trkpt>
      <trkpt lat="49.8298" lon="4.85842">
        <ele>314.4</ele>
        <time>2021-04-23T11:44:27Z</time>
      </trkpt>
      <trkpt lat="49.82981" lon="4.85858">
        <ele>338</ele>
        <time>2021-04-23T11:44:29Z</time>
      </trkpt>
      <trkpt lat="49.82982" lon="4.85866">
        <ele>344.3</ele>
        <time>2021-04-23T11:44:30Z</time>
      </trkpt>
      <trkpt lat="49.82983" lon="4.85874">
        <ele>333.5</ele>
        <time>2021-04-23T11:44:31Z</time>
      </trkpt>
      <trkpt lat="49.82985" lon="4.85891">
        <ele>318.3</ele>
        <time>2021-04-23T11:44:33Z</time>
      </trkpt>
      <trkpt lat="49.82986" lon="4.85899">
        <ele>335.3</ele>
        <time>2021-04-23T11:44:34Z</time>
      </trkpt>
      <trkpt lat="49.8299" lon="4.85911">
        <ele>337.8</ele>
        <time>2021-04-23T11:44:36Z</time>
      </trkpt>
      <trkpt lat="49.82995" lon="4.85925">
        <ele>305.1</ele>
        <time>2021-04-23T11:44:38Z</time>
      </trkpt>
      <trkpt lat="49.82999" lon="4.85938">
        <ele>326.5</ele>
        <time>2021-04-23T11:44:40Z</time>
      </trkpt>
      <trkpt lat="49.83002" lon="4.85952">
        <ele>324.3</ele>
        <time>2021-04-23T11:44:42Z</time>
      </trkpt>
      <trkpt lat="49.83002" lon="4.8596">
        <ele>342.2</ele>
        <time>2021-04-23T11:44:44Z</time>
      </trkpt>
      <trkpt lat="49.83006" lon="4.85968">
        <ele>330.6</ele>
        <time>2021-04-23T11:44:47Z</time>
      </trkpt>
      <trkpt lat="49.83011" lon="4.85976">
        <ele>336</ele>
        <time>2021-04-23T11:44:50Z</time>
      </trkpt>
      <trkpt lat="49.83014" lon="4.85983">
        <ele>321.7</ele>
        <time>2021-04-23T11:44:53Z</time>
      </trkpt>
      <trkpt lat="49.83016" lon="4.85993">
        <ele>326.8</ele>
        <time>2021-04-23T11:44:56Z</time>
      </trkpt>
      <trkpt lat="49.83017" lon="4.86">
        <ele>314.2</ele>
        <time>2021-04-23T11:44:58Z</time>
      </trkpt>
      <trkpt lat="49.8302" lon="4.86009">
        <ele>321.9</ele>
        <time>2021-04-23T11:45:01Z</time>
      </trkpt>
      <trkpt lat="49.83021" lon="4.86017">
        <ele>341.6</ele>
        <time>2021-04-23T11:45:03Z</time>
      </trkpt>
      <trkpt lat="49.83023" lon="4.86027">
        <ele>327.5</ele>
        <time>2021-04-23T11:45:07Z</time>
      </trkpt>
      <trkpt lat="49.83024" lon="4.86037">
        <ele>352</ele>
        <time>2021-04-23T11:45:10Z</time>
      </trkpt>
      <trkpt lat="49.83025" lon="4.86044">
        <ele>330</ele>
        <time>2021-04-23T11:45:12Z</time>
      </trkpt>
      <trkpt lat="49.83026" lon="4.86056">
        <ele>321.6</ele>
        <time>2021-04-23T11:45:16Z</time>
      </trkpt>
      <trkpt lat="49.83026" lon="4.86065">
        <ele>331.1</ele>
        <time>2021-04-23T11:45:18Z</time>
      </trkpt>
      <trkpt lat="49.83026" lon="4.86074">
        <ele>346.1</ele>
        <time>2021-04-23T11:45:21Z</time>
      </trkpt>
      <trkpt lat="49.83028" lon="4.86082">
        <ele>333.7</ele>
        <time>2021-04-23T11:45:24Z</time>
      </trkpt>
      <trkpt lat="49.83029" lon="4.8609">
        <ele>336.7</ele>
        <time>2021-04-23T11:45:27Z</time>
      </trkpt>
      <trkpt lat="49.8303" lon="4.86097">
        <ele>319.9</ele>
        <time>2021-04-23T11:45:30Z</time>
      </trkpt>
      <trkpt lat="49.8303" lon="4.86105">
        <ele>342.1</ele>
        <time>2021-04-23T11:45:32Z</time>
      </trkpt>
      <trkpt lat="49.83032" lon="4.86116">
        <ele>341.5</ele>
        <time>2021-04-23T11:45:35Z</time>
      </trkpt>
      <trkpt lat="49.83034" lon="4.86127">
        <ele>354.6</ele>
        <time>2021-04-23T11:45:38Z</time>
      </trkpt>
      <trkpt lat="49.83032" lon="4.8614">
        <ele>324.5</ele>
        <time>2021-04-23T11:45:41Z</time>
      </trkpt>
      <trkpt lat="49.8303" lon="4.8615">
        <ele>332.6</ele>
        <time>2021-04-23T11:45:44Z</time>
      </trkpt>
      <trkpt lat="49.8303" lon="4.86158">
        <ele>319.1</ele>
        <time>2021-04-23T11:45:46Z</time>
      </trkpt>
      <trkpt lat="49.83029" lon="4.86166">
        <ele>356.3</ele>
        <time>2021-04-23T11:45:50Z</time>
      </trkpt>
      <trkpt lat="49.83029" lon="4.86175">
        <ele>327.6</ele>
        <time>2021-04-23T11:45:56Z</time>
      </trkpt>
      <trkpt lat="49.83029" lon="4.86183">
        <ele>322</ele>
        <time>2021-04-23T11:45:59Z</time>
      </trkpt>
      <trkpt lat="49.83028" lon="4.86192">
        <ele>337.3</ele>
        <time>2021-04-23T11:46:03Z</time>
      </trkpt>
      <trkpt lat="49.83026" lon="4.86199">
        <ele>339</ele>
        <time>2021-04-23T11:46:05Z</time>
      </trkpt>
      <trkpt lat="49.83023" lon="4.86207">
        <ele>342.9</ele>
        <time>2021-04-23T11:46:08Z</time>
      </trkpt>
      <trkpt lat="49.8302" lon="4.86214">
        <ele>327.7</ele>
        <time>2021-04-23T11:46:11Z</time>
      </trkpt>
      <trkpt lat="49.83018" lon="4.86221">
        <ele>313.8</ele>
        <time>2021-04-23T11:46:15Z</time>
      </trkpt>
      <trkpt lat="49.83015" lon="4.86231">
        <ele>325.7</ele>
        <time>2021-04-23T11:46:18Z</time>
      </trkpt>
      <trkpt lat="49.83013" lon="4.86241">
        <ele>328.8</ele>
        <time>2021-04-23T11:46:21Z</time>
      </trkpt>
      <trkpt lat="49.8301" lon="4.86251">
        <ele>339.9</ele>
        <time>2021-04-23T11:46:23Z</time>
      </trkpt>
      <trkpt lat="49.8301" lon="4.8626">
        <ele>321.1</ele>
        <time>2021-04-23T11:46:26Z</time>
      </trkpt>
      <trkpt lat="49.8301" lon="4.86269">
        <ele>331</ele>
        <time>2021-04-23T11:46:29Z</time>
      </trkpt>
      <trkpt lat="49.83009" lon="4.86278">
        <ele>332.5</ele>
        <time>2021-04-23T11:46:31Z</time>
      </trkpt>
      <trkpt lat="49.83008" lon="4.8629">
        <ele>349.8</ele>
        <time>2021-04-23T11:46:34Z</time>
      </trkpt>
      <trkpt lat="49.83005" lon="4.863">
        <ele>338.1</ele>
        <time>2021-04-23T11:46:37Z</time>
      </trkpt>
      <trkpt lat="49.83003" lon="4.86307">
        <ele>335.7</ele>
        <time>2021-04-23T11:46:39Z</time>
      </trkpt>
      <trkpt lat="49.83001" lon="4.86314">
        <ele>332.8</ele>
        <time>2021-04-23T11:46:42Z</time>
      </trkpt>
      <trkpt lat="49.82998" lon="4.86323">
        <ele>340.6</ele>
        <time>2021-04-23T11:46:47Z</time>
      </trkpt>
      <trkpt lat="49.82994" lon="4.8633">
        <ele>330.7</ele>
        <time>2021-04-23T11:46:50Z</time>
      </trkpt>
      <trkpt lat="49.82989" lon="4.86338">
        <ele>341.2</ele>
        <time>2021-04-23T11:46:53Z</time>
      </trkpt>
      <trkpt lat="49.82985" lon="4.86345">
        <ele>348.6</ele>
        <time>2021-04-23T11:46:55Z</time>
      </trkpt>
      <trkpt lat="49.8298" lon="4.86355">
        <ele>339.3</ele>
        <time>2021-04-23T11:46:59Z</time>
      </trkpt>
      <trkpt lat="49.82977" lon="4.86361">
        <ele>334</ele>
        <time>2021-04-23T11:47:00Z</time>
      </trkpt>
      <trkpt lat="49.82974" lon="4.86367">
        <ele>336.2</ele>
        <time>2021-04-23T11:47:02Z</time>
      </trkpt>
      <trkpt lat="49.8297" lon="4.86377">
        <ele>355</ele>
        <time>2021-04-23T11:47:05Z</time>
      </trkpt>
      <trkpt lat="49.82965" lon="4.86388">
        <ele>340.9</ele>
        <time>2021-04-23T11:47:08Z</time>
      </trkpt>
      <trkpt lat="49.82961" lon="4.864">
        <ele>326.8</ele>
        <time>2021-04-23T11:47:12Z</time>
      </trkpt>
      <trkpt lat="49.82959" lon="4.86409">
        <ele>343.3</ele>
        <time>2021-04-23T11:47:14Z</time>
      </trkpt>
      <trkpt lat="49.82955" lon="4.86418">
        <ele>316.9</ele>
        <time>2021-04-23T11:47:17Z</time>
      </trkpt>
      <trkpt lat="49.8295" lon="4.86429">
        <ele>328.7</ele>
        <time>2021-04-23T11:47:20Z</time>
      </trkpt>
      <trkpt lat="49.82946" lon="4.8644">
        <ele>336.4</ele>
        <time>2021-04-23T11:47:23Z</time>
      </trkpt>
      <trkpt lat="49.82942" lon="4.8645">
        <ele>328.2</ele>
        <time>2021-04-23T11:47:25Z</time>
      </trkpt>
      <trkpt lat="49.82937" lon="4.86459">
        <ele>360.2</ele>
        <time>2021-04-23T11:47:28Z</time>
      </trkpt>
      <trkpt lat="49.82933" lon="4.86469">
        <ele>342.4</ele>
        <time>2021-04-23T11:47:31Z</time>
      </trkpt>
      <trkpt lat="49.8293" lon="4.86477">
        <ele>338.1</ele>
        <time>2021-04-23T11:47:34Z</time>
      </trkpt>
      <trkpt lat="49.82926" lon="4.86487">
        <ele>331.6</ele>
        <time>2021-04-23T11:47:37Z</time>
      </trkpt>
      <trkpt lat="49.82923" lon="4.86493">
        <ele>351.9</ele>
        <time>2021-04-23T11:47:40Z</time>
      </trkpt>
      <trkpt lat="49.82919" lon="4.86499">
        <ele>339.6</ele>
        <time>2021-04-23T11:47:42Z</time>
      </trkpt>
      <trkpt lat="49.82913" lon="4.86505">
        <ele>332.6</ele>
        <time>2021-04-23T11:47:45Z</time>
      </trkpt>
      <trkpt lat="49.82908" lon="4.86511">
        <ele>321.8</ele>
        <time>2021-04-23T11:47:47Z</time>
      </trkpt>
      <trkpt lat="49.82903" lon="4.86517">
        <ele>331</ele>
        <time>2021-04-23T11:47:50Z</time>
      </trkpt>
      <trkpt lat="49.82896" lon="4.86524">
        <ele>329.2</ele>
        <time>2021-04-23T11:47:54Z</time>
      </trkpt>
      <trkpt lat="49.82889" lon="4.86532">
        <ele>336.4</ele>
        <time>2021-04-23T11:47:57Z</time>
      </trkpt>
      <trkpt lat="49.82883" lon="4.86536">
        <ele>343.6</ele>
        <time>2021-04-23T11:48:00Z</time>
      </trkpt>
      <trkpt lat="49.82877" lon="4.86539">
        <ele>331.2</ele>
        <time>2021-04-23T11:48:03Z</time>
      </trkpt>
      <trkpt lat="49.82871" lon="4.86543">
        <ele>334.9</ele>
        <time>2021-04-23T11:48:07Z</time>
      </trkpt>
      <trkpt lat="49.82864" lon="4.86547">
        <ele>317.3</ele>
        <time>2021-04-23T11:48:11Z</time>
      </trkpt>
      <trkpt lat="49.82857" lon="4.86552">
        <ele>335.4</ele>
        <time>2021-04-23T11:48:13Z</time>
      </trkpt>
      <trkpt lat="49.82853" lon="4.86555">
        <ele>345.6</ele>
        <time>2021-04-23T11:48:14Z</time>
      </trkpt>
      <trkpt lat="49.82849" lon="4.86558">
        <ele>340.5</ele>
        <time>2021-04-23T11:48:16Z</time>
      </trkpt>
      <trkpt lat="49.82842" lon="4.86565">
        <ele>320.9</ele>
        <time>2021-04-23T11:48:18Z</time>
      </trkpt>
      <trkpt lat="49.82835" lon="4.8657">
        <ele>330.4</ele>
        <time>2021-04-23T11:48:21Z</time>
      </trkpt>
      <trkpt lat="49.8283" lon="4.86571">
        <ele>321.5</ele>
        <time>2021-04-23T11:48:23Z</time>
      </trkpt>
      <trkpt lat="49.82824" lon="4.86575">
        <ele>323</ele>
        <time>2021-04-23T11:48:28Z</time>
      </trkpt>
      <trkpt lat="49.82818" lon="4.8658">
        <ele>320.1</ele>
        <time>2021-04-23T11:48:31Z</time>
      </trkpt>
      <trkpt lat="49.82813" lon="4.86584">
        <ele>323.3</ele>
        <time>2021-04-23T11:48:33Z</time>
      </trkpt>
      <trkpt lat="49.82807" lon="4.86589">
        <ele>336.1</ele>
        <time>2021-04-23T11:48:36Z</time>
      </trkpt>
      <trkpt lat="49.82798" lon="4.86594">
        <ele>309.7</ele>
        <time>2021-04-23T11:48:39Z</time>
      </trkpt>
      <trkpt lat="49.82793" lon="4.86596">
        <ele>308.8</ele>
        <time>2021-04-23T11:48:42Z</time>
      </trkpt>
      <trkpt lat="49.82787" lon="4.86601">
        <ele>325.9</ele>
        <time>2021-04-23T11:48:46Z</time>
      </trkpt>
      <trkpt lat="49.82782" lon="4.86606">
        <ele>318.4</ele>
        <time>2021-04-23T11:48:48Z</time>
      </trkpt>
      <trkpt lat="49.82775" lon="4.86612">
        <ele>309.6</ele>
        <time>2021-04-23T11:48:52Z</time>
      </trkpt>
      <trkpt lat="49.82768" lon="4.86617">
        <ele>310.6</ele>
        <time>2021-04-23T11:48:53Z</time>
      </trkpt>
      <trkpt lat="49.82762" lon="4.86623">
        <ele>320.8</ele>
        <time>2021-04-23T11:48:56Z</time>
      </trkpt>
      <trkpt lat="49.82757" lon="4.86631">
        <ele>296</ele>
        <time>2021-04-23T11:49:00Z</time>
      </trkpt>
      <trkpt lat="49.82752" lon="4.86636">
        <ele>325.7</ele>
        <time>2021-04-23T11:49:02Z</time>
      </trkpt>
      <trkpt lat="49.82747" lon="4.86642">
        <ele>338.8</ele>
        <time>2021-04-23T11:49:04Z</time>
      </trkpt>
      <trkpt lat="49.82743" lon="4.8665">
        <ele>325.7</ele>
        <time>2021-04-23T11:49:07Z</time>
      </trkpt>
      <trkpt lat="49.82739" lon="4.86657">
        <ele>327.9</ele>
        <time>2021-04-23T11:49:10Z</time>
      </trkpt>
      <trkpt lat="49.82732" lon="4.86666">
        <ele>301.3</ele>
        <time>2021-04-23T11:49:13Z</time>
      </trkpt>
      <trkpt lat="49.82728" lon="4.86674">
        <ele>318.8</ele>
        <time>2021-04-23T11:49:16Z</time>
      </trkpt>
      <trkpt lat="49.82724" lon="4.8668">
        <ele>302.1</ele>
        <time>2021-04-23T11:49:18Z</time>
      </trkpt>
      <trkpt lat="49.82721" lon="4.86688">
        <ele>322.6</ele>
        <time>2021-04-23T11:49:21Z</time>
      </trkpt>
      <trkpt lat="49.82717" lon="4.86695">
        <ele>313.2</ele>
        <time>2021-04-23T11:49:24Z</time>
      </trkpt>
      <trkpt lat="49.82712" lon="4.86701">
        <ele>321</ele>
        <time>2021-04-23T11:49:26Z</time>
      </trkpt>
      <trkpt lat="49.82709" lon="4.8671">
        <ele>305.9</ele>
        <time>2021-04-23T11:49:29Z</time>
      </trkpt>
      <trkpt lat="49.82705" lon="4.86719">
        <ele>330</ele>
        <time>2021-04-23T11:49:33Z</time>
      </trkpt>
      <trkpt lat="49.82701" lon="4.86728">
        <ele>325.3</ele>
        <time>2021-04-23T11:49:36Z</time>
      </trkpt>
      <trkpt lat="49.82696" lon="4.86736">
        <ele>309.7</ele>
        <time>2021-04-23T11:49:40Z</time>
      </trkpt>
      <trkpt lat="49.82692" lon="4.86745">
        <ele>315.8</ele>
        <time>2021-04-23T11:49:44Z</time>
      </trkpt>
      <trkpt lat="49.8269" lon="4.86753">
        <ele>340</ele>
        <time>2021-04-23T11:49:47Z</time>
      </trkpt>
      <trkpt lat="49.82689" lon="4.86761">
        <ele>312.1</ele>
        <time>2021-04-23T11:49:50Z</time>
      </trkpt>
      <trkpt lat="49.82687" lon="4.86772">
        <ele>312.1</ele>
        <time>2021-04-23T11:49:55Z</time>
      </trkpt>
      <trkpt lat="49.82686" lon="4.8678">
        <ele>305.8</ele>
        <time>2021-04-23T11:49:57Z</time>
      </trkpt>
      <trkpt lat="49.82685" lon="4.86789">
        <ele>333.2</ele>
        <time>2021-04-23T11:50:00Z</time>
      </trkpt>
      <trkpt lat="49.82685" lon="4.86797">
        <ele>310.6</ele>
        <time>2021-04-23T11:50:03Z</time>
      </trkpt>
      <trkpt lat="49.82684" lon="4.86807">
        <ele>306</ele>
        <time>2021-04-23T11:50:06Z</time>
      </trkpt>
      <trkpt lat="49.82683" lon="4.86817">
        <ele>318.8</ele>
        <time>2021-04-23T11:50:09Z</time>
      </trkpt>
      <trkpt lat="49.82683" lon="4.86824">
        <ele>325.6</ele>
        <time>2021-04-23T11:50:11Z</time>
      </trkpt>
      <trkpt lat="49.82681" lon="4.86833">
        <ele>319.9</ele>
        <time>2021-04-23T11:50:14Z</time>
      </trkpt>
      <trkpt lat="49.82678" lon="4.86839">
        <ele>316.5</ele>
        <time>2021-04-23T11:50:26Z</time>
      </trkpt>
      <trkpt lat="49.82677" lon="4.86847">
        <ele>303.8</ele>
        <time>2021-04-23T11:50:47Z</time>
      </trkpt>
      <trkpt lat="49.82673" lon="4.86853">
        <ele>318.8</ele>
        <time>2021-04-23T11:51:12Z</time>
      </trkpt>
      <trkpt lat="49.82671" lon="4.86861">
        <ele>327.2</ele>
        <time>2021-04-23T11:51:25Z</time>
      </trkpt>
      <trkpt lat="49.82671" lon="4.86871">
        <ele>329.2</ele>
        <time>2021-04-23T11:51:27Z</time>
      </trkpt>
      <trkpt lat="49.82671" lon="4.86879">
        <ele>308.7</ele>
        <time>2021-04-23T11:51:30Z</time>
      </trkpt>
      <trkpt lat="49.82671" lon="4.86888">
        <ele>328.7</ele>
        <time>2021-04-23T11:51:33Z</time>
      </trkpt>
      <trkpt lat="49.82667" lon="4.86898">
        <ele>313.8</ele>
        <time>2021-04-23T11:51:36Z</time>
      </trkpt>
      <trkpt lat="49.82664" lon="4.8691">
        <ele>325.6</ele>
        <time>2021-04-23T11:51:39Z</time>
      </trkpt>
      <trkpt lat="49.82664" lon="4.86918">
        <ele>320.6</ele>
        <time>2021-04-23T11:51:40Z</time>
      </trkpt>
      <trkpt lat="49.82661" lon="4.86932">
        <ele>326</ele>
        <time>2021-04-23T11:51:43Z</time>
      </trkpt>
      <trkpt lat="49.82659" lon="4.86944">
        <ele>323.3</ele>
        <time>2021-04-23T11:51:46Z</time>
      </trkpt>
      <trkpt lat="49.82657" lon="4.86953">
        <ele>319.5</ele>
        <time>2021-04-23T11:51:48Z</time>
      </trkpt>
      <trkpt lat="49.82655" lon="4.8696">
        <ele>344</ele>
        <time>2021-04-23T11:51:51Z</time>
      </trkpt>
      <trkpt lat="49.82653" lon="4.86968">
        <ele>317.9</ele>
        <time>2021-04-23T11:51:53Z</time>
      </trkpt>
      <trkpt lat="49.8265" lon="4.86975">
        <ele>319.4</ele>
        <time>2021-04-23T11:51:56Z</time>
      </trkpt>
      <trkpt lat="49.82646" lon="4.86981">
        <ele>340.5</ele>
        <time>2021-04-23T11:51:58Z</time>
      </trkpt>
      <trkpt lat="49.82641" lon="4.86989">
        <ele>332</ele>
        <time>2021-04-23T11:52:01Z</time>
      </trkpt>
      <trkpt lat="49.82636" lon="4.86997">
        <ele>327.9</ele>
        <time>2021-04-23T11:52:03Z</time>
      </trkpt>
      <trkpt lat="49.8263" lon="4.87004">
        <ele>336.7</ele>
        <time>2021-04-23T11:52:06Z</time>
      </trkpt>
      <trkpt lat="49.82625" lon="4.8701">
        <ele>336.7</ele>
        <time>2021-04-23T11:52:07Z</time>
      </trkpt>
      <trkpt lat="49.82619" lon="4.87017">
        <ele>344.4</ele>
        <time>2021-04-23T11:52:09Z</time>
      </trkpt>
      <trkpt lat="49.82615" lon="4.87021">
        <ele>323.3</ele>
        <time>2021-04-23T11:52:11Z</time>
      </trkpt>
      <trkpt lat="49.8261" lon="4.87025">
        <ele>343</ele>
        <time>2021-04-23T11:52:12Z</time>
      </trkpt>
      <trkpt lat="49.82606" lon="4.87029">
        <ele>341.2</ele>
        <time>2021-04-23T11:52:13Z</time>
      </trkpt>
      <trkpt lat="49.82601" lon="4.87035">
        <ele>333.3</ele>
        <time>2021-04-23T11:52:14Z</time>
      </trkpt>
      <trkpt lat="49.82595" lon="4.8704">
        <ele>349.9</ele>
        <time>2021-04-23T11:52:15Z</time>
      </trkpt>
      <trkpt lat="49.82591" lon="4.87046">
        <ele>336.6</ele>
        <time>2021-04-23T11:52:17Z</time>
      </trkpt>
      <trkpt lat="49.82584" lon="4.87055">
        <ele>352</ele>
        <time>2021-04-23T11:52:19Z</time>
      </trkpt>
      <trkpt lat="49.82579" lon="4.87059">
        <ele>340.4</ele>
        <time>2021-04-23T11:52:20Z</time>
      </trkpt>
      <trkpt lat="49.82568" lon="4.87065">
        <ele>337.8</ele>
        <time>2021-04-23T11:52:22Z</time>
      </trkpt>
      <trkpt lat="49.82557" lon="4.87074">
        <ele>334.6</ele>
        <time>2021-04-23T11:52:24Z</time>
      </trkpt>
      <trkpt lat="49.82548" lon="4.87082">
        <ele>329.9</ele>
        <time>2021-04-23T11:52:26Z</time>
      </trkpt>
      <trkpt lat="49.82541" lon="4.87088">
        <ele>356</ele>
        <time>2021-04-23T11:52:28Z</time>
      </trkpt>
      <trkpt lat="49.82532" lon="4.87097">
        <ele>330.9</ele>
        <time>2021-04-23T11:52:30Z</time>
      </trkpt>
      <trkpt lat="49.82524" lon="4.87108">
        <ele>355.1</ele>
        <time>2021-04-23T11:52:33Z</time>
      </trkpt>
      <trkpt lat="49.82519" lon="4.87114">
        <ele>339.9</ele>
        <time>2021-04-23T11:52:34Z</time>
      </trkpt>
      <trkpt lat="49.82515" lon="4.87121">
        <ele>350.9</ele>
        <time>2021-04-23T11:52:35Z</time>
      </trkpt>
      <trkpt lat="49.82512" lon="4.87126">
        <ele>341.1</ele>
        <time>2021-04-23T11:52:36Z</time>
      </trkpt>
      <trkpt lat="49.82507" lon="4.87141">
        <ele>347.6</ele>
        <time>2021-04-23T11:52:38Z</time>
      </trkpt>
      <trkpt lat="49.82493" lon="4.87159">
        <ele>334.3</ele>
        <time>2021-04-23T11:52:41Z</time>
      </trkpt>
      <trkpt lat="49.8249" lon="4.87166">
        <ele>341.2</ele>
        <time>2021-04-23T11:52:42Z</time>
      </trkpt>
      <trkpt lat="49.82483" lon="4.87182">
        <ele>335.1</ele>
        <time>2021-04-23T11:52:44Z</time>
      </trkpt>
      <trkpt lat="49.82481" lon="4.8719">
        <ele>344.8</ele>
        <time>2021-04-23T11:52:45Z</time>
      </trkpt>
      <trkpt lat="49.82473" lon="4.87207">
        <ele>354.5</ele>
        <time>2021-04-23T11:52:47Z</time>
      </trkpt>
      <trkpt lat="49.8247" lon="4.87213">
        <ele>347</ele>
        <time>2021-04-23T11:52:48Z</time>
      </trkpt>
      <trkpt lat="49.82466" lon="4.87223">
        <ele>348.3</ele>
        <time>2021-04-23T11:52:51Z</time>
      </trkpt>
      <trkpt lat="49.82462" lon="4.87231">
        <ele>340.4</ele>
        <time>2021-04-23T11:52:52Z</time>
      </trkpt>
      <trkpt lat="49.82456" lon="4.87243">
        <ele>348.1</ele>
        <time>2021-04-23T11:52:54Z</time>
      </trkpt>
      <trkpt lat="49.8245" lon="4.87255">
        <ele>357.3</ele>
        <time>2021-04-23T11:52:56Z</time>
      </trkpt>
      <trkpt lat="49.82447" lon="4.87266">
        <ele>352.3</ele>
        <time>2021-04-23T11:52:57Z</time>
      </trkpt>
      <trkpt lat="49.82443" lon="4.87276">
        <ele>352.1</ele>
        <time>2021-04-23T11:52:58Z</time>
      </trkpt>
      <trkpt lat="49.8244" lon="4.87282">
        <ele>355.4</ele>
        <time>2021-04-23T11:52:59Z</time>
      </trkpt>
      <trkpt lat="49.82437" lon="4.87291">
        <ele>356.9</ele>
        <time>2021-04-23T11:53:01Z</time>
      </trkpt>
      <trkpt lat="49.8244" lon="4.87298">
        <ele>366.9</ele>
        <time>2021-04-23T11:53:02Z</time>
      </trkpt>
      <trkpt lat="49.82437" lon="4.87309">
        <ele>351.6</ele>
        <time>2021-04-23T11:53:04Z</time>
      </trkpt>
      <trkpt lat="49.82434" lon="4.87318">
        <ele>351.6</ele>
        <time>2021-04-23T11:53:05Z</time>
      </trkpt>
      <trkpt lat="49.82431" lon="4.87329">
        <ele>341.3</ele>
        <time>2021-04-23T11:53:06Z</time>
      </trkpt>
      <trkpt lat="49.82428" lon="4.87338">
        <ele>351.9</ele>
        <time>2021-04-23T11:53:08Z</time>
      </trkpt>
      <trkpt lat="49.82427" lon="4.87345">
        <ele>349.8</ele>
        <time>2021-04-23T11:53:10Z</time>
      </trkpt>
      <trkpt lat="49.82423" lon="4.87354">
        <ele>375.8</ele>
        <time>2021-04-23T11:53:15Z</time>
      </trkpt>
      <trkpt lat="49.82423" lon="4.87362">
        <ele>358.1</ele>
        <time>2021-04-23T11:54:00Z</time>
      </trkpt>
      <trkpt lat="49.82423" lon="4.87374">
        <ele>358.1</ele>
        <time>2021-04-23T11:54:04Z</time>
      </trkpt>
      <trkpt lat="49.82423" lon="4.87387">
        <ele>358.1</ele>
        <time>2021-04-23T11:54:06Z</time>
      </trkpt>
      <trkpt lat="49.82424" lon="4.87395">
        <ele>358.1</ele>
        <time>2021-04-23T11:54:08Z</time>
      </trkpt>
      <trkpt lat="49.82422" lon="4.87408">
        <ele>358.1</ele>
        <time>2021-04-23T11:54:11Z</time>
      </trkpt>
      <trkpt lat="49.82422" lon="4.87424">
        <ele>358.1</ele>
        <time>2021-04-23T11:54:14Z</time>
      </trkpt>
      <trkpt lat="49.82421" lon="4.87434">
        <ele>358.1</ele>
        <time>2021-04-23T11:54:16Z</time>
      </trkpt>
      <trkpt lat="49.82419" lon="4.87445">
        <ele>358.1</ele>
        <time>2021-04-23T11:54:18Z</time>
      </trkpt>
      <trkpt lat="49.82419" lon="4.87453">
        <ele>358.1</ele>
        <time>2021-04-23T11:54:19Z</time>
      </trkpt>
      <trkpt lat="49.82418" lon="4.87468">
        <ele>358</ele>
        <time>2021-04-23T11:54:21Z</time>
      </trkpt>
      <trkpt lat="49.82416" lon="4.87479">
        <ele>358</ele>
        <time>2021-04-23T11:54:23Z</time>
      </trkpt>
      <trkpt lat="49.8241" lon="4.87491">
        <ele>358</ele>
        <time>2021-04-23T11:54:25Z</time>
      </trkpt>
      <trkpt lat="49.82406" lon="4.875">
        <ele>358</ele>
        <time>2021-04-23T11:54:27Z</time>
      </trkpt>
      <trkpt lat="49.82402" lon="4.87514">
        <ele>358.1</ele>
        <time>2021-04-23T11:54:30Z</time>
      </trkpt>
      <trkpt lat="49.824" lon="4.87521">
        <ele>358.1</ele>
        <time>2021-04-23T11:54:31Z</time>
      </trkpt>
      <trkpt lat="49.82399" lon="4.87529">
        <ele>358.1</ele>
        <time>2021-04-23T11:54:32Z</time>
      </trkpt>
      <trkpt lat="49.82396" lon="4.8754">
        <ele>358</ele>
        <time>2021-04-23T11:54:35Z</time>
      </trkpt>
      <trkpt lat="49.82396" lon="4.87551">
        <ele>358</ele>
        <time>2021-04-23T11:54:39Z</time>
      </trkpt>
      <trkpt lat="49.824" lon="4.87556">
        <ele>358</ele>
        <time>2021-04-23T11:54:53Z</time>
      </trkpt>
      <trkpt lat="49.82402" lon="4.87563">
        <ele>365</ele>
        <time>2021-04-23T11:56:47Z</time>
      </trkpt>
      <trkpt lat="49.82405" lon="4.87573">
        <ele>341.1</ele>
        <time>2021-04-23T11:56:50Z</time>
      </trkpt>
      <trkpt lat="49.82412" lon="4.87581">
        <ele>337</ele>
        <time>2021-04-23T11:56:52Z</time>
      </trkpt>
      <trkpt lat="49.82417" lon="4.87586">
        <ele>371.2</ele>
        <time>2021-04-23T11:56:54Z</time>
      </trkpt>
      <trkpt lat="49.82421" lon="4.8759">
        <ele>371.5</ele>
        <time>2021-04-23T11:56:55Z</time>
      </trkpt>
      <trkpt lat="49.82428" lon="4.87603">
        <ele>352.8</ele>
        <time>2021-04-23T11:56:57Z</time>
      </trkpt>
      <trkpt lat="49.82433" lon="4.8761">
        <ele>341.4</ele>
        <time>2021-04-23T11:56:59Z</time>
      </trkpt>
      <trkpt lat="49.82437" lon="4.87616">
        <ele>362.1</ele>
        <time>2021-04-23T11:57:01Z</time>
      </trkpt>
      <trkpt lat="49.82442" lon="4.87625">
        <ele>353.5</ele>
        <time>2021-04-23T11:57:03Z</time>
      </trkpt>
      <trkpt lat="49.82449" lon="4.87637">
        <ele>355.2</ele>
        <time>2021-04-23T11:57:06Z</time>
      </trkpt>
      <trkpt lat="49.82453" lon="4.87644">
        <ele>361.6</ele>
        <time>2021-04-23T11:57:08Z</time>
      </trkpt>
      <trkpt lat="49.82456" lon="4.87651">
        <ele>346.2</ele>
        <time>2021-04-23T11:57:10Z</time>
      </trkpt>
      <trkpt lat="49.82461" lon="4.87665">
        <ele>350.5</ele>
        <time>2021-04-23T11:57:13Z</time>
      </trkpt>
      <trkpt lat="49.82462" lon="4.87673">
        <ele>357.8</ele>
        <time>2021-04-23T11:57:14Z</time>
      </trkpt>
      <trkpt lat="49.82463" lon="4.87686">
        <ele>362.5</ele>
        <time>2021-04-23T11:57:16Z</time>
      </trkpt>
      <trkpt lat="49.82464" lon="4.87693">
        <ele>351.6</ele>
        <time>2021-04-23T11:57:17Z</time>
      </trkpt>
      <trkpt lat="49.82464" lon="4.87702">
        <ele>367.1</ele>
        <time>2021-04-23T11:57:18Z</time>
      </trkpt>
      <trkpt lat="49.82466" lon="4.87711">
        <ele>350.7</ele>
        <time>2021-04-23T11:57:20Z</time>
      </trkpt>
      <trkpt lat="49.82467" lon="4.8772">
        <ele>354.3</ele>
        <time>2021-04-23T11:57:21Z</time>
      </trkpt>
      <trkpt lat="49.82468" lon="4.8773">
        <ele>360.6</ele>
        <time>2021-04-23T11:57:23Z</time>
      </trkpt>
      <trkpt lat="49.82469" lon="4.87746">
        <ele>349</ele>
        <time>2021-04-23T11:57:25Z</time>
      </trkpt>
      <trkpt lat="49.82469" lon="4.87755">
        <ele>350.9</ele>
        <time>2021-04-23T11:57:27Z</time>
      </trkpt>
      <trkpt lat="49.82471" lon="4.87766">
        <ele>358.5</ele>
        <time>2021-04-23T11:57:29Z</time>
      </trkpt>
      <trkpt lat="49.82473" lon="4.87782">
        <ele>335.1</ele>
        <time>2021-04-23T11:57:32Z</time>
      </trkpt>
      <trkpt lat="49.82474" lon="4.87791">
        <ele>371.6</ele>
        <time>2021-04-23T11:57:34Z</time>
      </trkpt>
      <trkpt lat="49.82475" lon="4.87803">
        <ele>351.8</ele>
        <time>2021-04-23T11:57:37Z</time>
      </trkpt>
      <trkpt lat="49.82476" lon="4.87812">
        <ele>352.4</ele>
        <time>2021-04-23T11:57:38Z</time>
      </trkpt>
      <trkpt lat="49.82478" lon="4.87825">
        <ele>362.4</ele>
        <time>2021-04-23T11:57:42Z</time>
      </trkpt>
      <trkpt lat="49.82477" lon="4.87833">
        <ele>360.2</ele>
        <time>2021-04-23T11:57:44Z</time>
      </trkpt>
      <trkpt lat="49.82478" lon="4.87843">
        <ele>368.3</ele>
        <time>2021-04-23T11:57:47Z</time>
      </trkpt>
      <trkpt lat="49.82479" lon="4.87855">
        <ele>352.9</ele>
        <time>2021-04-23T11:57:50Z</time>
      </trkpt>
      <trkpt lat="49.82479" lon="4.87864">
        <ele>353.3</ele>
        <time>2021-04-23T11:57:54Z</time>
      </trkpt>
      <trkpt lat="49.82481" lon="4.87871">
        <ele>357.5</ele>
        <time>2021-04-23T11:58:08Z</time>
      </trkpt>
      <trkpt lat="49.82482" lon="4.87881">
        <ele>358.6</ele>
        <time>2021-04-23T11:58:11Z</time>
      </trkpt>
      <trkpt lat="49.82484" lon="4.87889">
        <ele>366.4</ele>
        <time>2021-04-23T11:58:13Z</time>
      </trkpt>
      <trkpt lat="49.82485" lon="4.87901">
        <ele>383.1</ele>
        <time>2021-04-23T11:58:15Z</time>
      </trkpt>
      <trkpt lat="49.82487" lon="4.87913">
        <ele>370.8</ele>
        <time>2021-04-23T11:58:18Z</time>
      </trkpt>
      <trkpt lat="49.82491" lon="4.87928">
        <ele>358.6</ele>
        <time>2021-04-23T11:58:21Z</time>
      </trkpt>
      <trkpt lat="49.82493" lon="4.8794">
        <ele>347.4</ele>
        <time>2021-04-23T11:58:23Z</time>
      </trkpt>
      <trkpt lat="49.82493" lon="4.87948">
        <ele>357.7</ele>
        <time>2021-04-23T11:58:24Z</time>
      </trkpt>
      <trkpt lat="49.82491" lon="4.87963">
        <ele>349.2</ele>
        <time>2021-04-23T11:58:25Z</time>
      </trkpt>
      <trkpt lat="49.82487" lon="4.87972">
        <ele>350.7</ele>
        <time>2021-04-23T11:58:26Z</time>
      </trkpt>
      <trkpt lat="49.82483" lon="4.87978">
        <ele>362.2</ele>
        <time>2021-04-23T11:58:27Z</time>
      </trkpt>
      <trkpt lat="49.82477" lon="4.87981">
        <ele>353.8</ele>
        <time>2021-04-23T11:58:28Z</time>
      </trkpt>
      <trkpt lat="49.82465" lon="4.87978">
        <ele>352.4</ele>
        <time>2021-04-23T11:58:30Z</time>
      </trkpt>
      <trkpt lat="49.82453" lon="4.87973">
        <ele>353.5</ele>
        <time>2021-04-23T11:58:32Z</time>
      </trkpt>
      <trkpt lat="49.82447" lon="4.8797">
        <ele>363.7</ele>
        <time>2021-04-23T11:58:33Z</time>
      </trkpt>
      <trkpt lat="49.82442" lon="4.87967">
        <ele>344.1</ele>
        <time>2021-04-23T11:58:34Z</time>
      </trkpt>
      <trkpt lat="49.82435" lon="4.87965">
        <ele>347.9</ele>
        <time>2021-04-23T11:58:35Z</time>
      </trkpt>
      <trkpt lat="49.8243" lon="4.87963">
        <ele>354.6</ele>
        <time>2021-04-23T11:58:37Z</time>
      </trkpt>
      <trkpt lat="49.82418" lon="4.87963">
        <ele>370.4</ele>
        <time>2021-04-23T11:58:39Z</time>
      </trkpt>
      <trkpt lat="49.82405" lon="4.87965">
        <ele>340.1</ele>
        <time>2021-04-23T11:58:41Z</time>
      </trkpt>
      <trkpt lat="49.82394" lon="4.87969">
        <ele>363.7</ele>
        <time>2021-04-23T11:58:43Z</time>
      </trkpt>
      <trkpt lat="49.82382" lon="4.87975">
        <ele>348.3</ele>
        <time>2021-04-23T11:58:45Z</time>
      </trkpt>
      <trkpt lat="49.82376" lon="4.87979">
        <ele>366.1</ele>
        <time>2021-04-23T11:58:46Z</time>
      </trkpt>
      <trkpt lat="49.82365" lon="4.87987">
        <ele>352.1</ele>
        <time>2021-04-23T11:58:48Z</time>
      </trkpt>
      <trkpt lat="49.82353" lon="4.87994">
        <ele>353.6</ele>
        <time>2021-04-23T11:58:50Z</time>
      </trkpt>
      <trkpt lat="49.82347" lon="4.87997">
        <ele>334.1</ele>
        <time>2021-04-23T11:58:51Z</time>
      </trkpt>
      <trkpt lat="49.82341" lon="4.88001">
        <ele>357.1</ele>
        <time>2021-04-23T11:58:52Z</time>
      </trkpt>
      <trkpt lat="49.8233" lon="4.88009">
        <ele>357.9</ele>
        <time>2021-04-23T11:58:54Z</time>
      </trkpt>
      <trkpt lat="49.82319" lon="4.88019">
        <ele>363.4</ele>
        <time>2021-04-23T11:58:56Z</time>
      </trkpt>
      <trkpt lat="49.82309" lon="4.88032">
        <ele>338.8</ele>
        <time>2021-04-23T11:58:57Z</time>
      </trkpt>
      <trkpt lat="49.82301" lon="4.88051">
        <ele>356.1</ele>
        <time>2021-04-23T11:58:59Z</time>
      </trkpt>
      <trkpt lat="49.82293" lon="4.88073">
        <ele>352.1</ele>
        <time>2021-04-23T11:59:01Z</time>
      </trkpt>
      <trkpt lat="49.8229" lon="4.88098">
        <ele>348.8</ele>
        <time>2021-04-23T11:59:03Z</time>
      </trkpt>
      <trkpt lat="49.82288" lon="4.88112">
        <ele>332.9</ele>
        <time>2021-04-23T11:59:04Z</time>
      </trkpt>
      <trkpt lat="49.82287" lon="4.88142">
        <ele>351.6</ele>
        <time>2021-04-23T11:59:06Z</time>
      </trkpt>
      <trkpt lat="49.82287" lon="4.88172">
        <ele>341.7</ele>
        <time>2021-04-23T11:59:08Z</time>
      </trkpt>
      <trkpt lat="49.82285" lon="4.88202">
        <ele>330.3</ele>
        <time>2021-04-23T11:59:10Z</time>
      </trkpt>
      <trkpt lat="49.82282" lon="4.88232">
        <ele>349</ele>
        <time>2021-04-23T11:59:12Z</time>
      </trkpt>
      <trkpt lat="49.82281" lon="4.8826">
        <ele>355.8</ele>
        <time>2021-04-23T11:59:14Z</time>
      </trkpt>
      <trkpt lat="49.82279" lon="4.88274">
        <ele>339.9</ele>
        <time>2021-04-23T11:59:15Z</time>
      </trkpt>
      <trkpt lat="49.82272" lon="4.88299">
        <ele>335.3</ele>
        <time>2021-04-23T11:59:17Z</time>
      </trkpt>
      <trkpt lat="49.82268" lon="4.88312">
        <ele>361.1</ele>
        <time>2021-04-23T11:59:18Z</time>
      </trkpt>
      <trkpt lat="49.8226" lon="4.88336">
        <ele>335.1</ele>
        <time>2021-04-23T11:59:20Z</time>
      </trkpt>
      <trkpt lat="49.82251" lon="4.88358">
        <ele>330.9</ele>
        <time>2021-04-23T11:59:22Z</time>
      </trkpt>
      <trkpt lat="49.82247" lon="4.88369">
        <ele>337</ele>
        <time>2021-04-23T11:59:24Z</time>
      </trkpt>
      <trkpt lat="49.82238" lon="4.88388">
        <ele>327.4</ele>
        <time>2021-04-23T11:59:26Z</time>
      </trkpt>
      <trkpt lat="49.82234" lon="4.88398">
        <ele>345.7</ele>
        <time>2021-04-23T11:59:27Z</time>
      </trkpt>
      <trkpt lat="49.82226" lon="4.88416">
        <ele>346</ele>
        <time>2021-04-23T11:59:29Z</time>
      </trkpt>
      <trkpt lat="49.82223" lon="4.88424">
        <ele>325.8</ele>
        <time>2021-04-23T11:59:30Z</time>
      </trkpt>
      <trkpt lat="49.82218" lon="4.88441">
        <ele>347.9</ele>
        <time>2021-04-23T11:59:32Z</time>
      </trkpt>
      <trkpt lat="49.82214" lon="4.88458">
        <ele>338.4</ele>
        <time>2021-04-23T11:59:34Z</time>
      </trkpt>
      <trkpt lat="49.82212" lon="4.88473">
        <ele>345</ele>
        <time>2021-04-23T11:59:36Z</time>
      </trkpt>
      <trkpt lat="49.82211" lon="4.88486">
        <ele>333.8</ele>
        <time>2021-04-23T11:59:38Z</time>
      </trkpt>
      <trkpt lat="49.82211" lon="4.88501">
        <ele>331</ele>
        <time>2021-04-23T11:59:40Z</time>
      </trkpt>
      <trkpt lat="49.82212" lon="4.88517">
        <ele>352.6</ele>
        <time>2021-04-23T11:59:42Z</time>
      </trkpt>
      <trkpt lat="49.82212" lon="4.88532">
        <ele>357.7</ele>
        <time>2021-04-23T11:59:44Z</time>
      </trkpt>
      <trkpt lat="49.82214" lon="4.88546">
        <ele>349.8</ele>
        <time>2021-04-23T11:59:46Z</time>
      </trkpt>
      <trkpt lat="49.82215" lon="4.88555">
        <ele>345</ele>
        <time>2021-04-23T11:59:47Z</time>
      </trkpt>
      <trkpt lat="49.82216" lon="4.88563">
        <ele>359.9</ele>
        <time>2021-04-23T11:59:48Z</time>
      </trkpt>
      <trkpt lat="49.8222" lon="4.88579">
        <ele>333.9</ele>
        <time>2021-04-23T11:59:50Z</time>
      </trkpt>
      <trkpt lat="49.82222" lon="4.88587">
        <ele>346.3</ele>
        <time>2021-04-23T11:59:51Z</time>
      </trkpt>
      <trkpt lat="49.82227" lon="4.88604">
        <ele>357.6</ele>
        <time>2021-04-23T11:59:53Z</time>
      </trkpt>
      <trkpt lat="49.8223" lon="4.88612">
        <ele>339.7</ele>
        <time>2021-04-23T11:59:54Z</time>
      </trkpt>
      <trkpt lat="49.82236" lon="4.88626">
        <ele>338.6</ele>
        <time>2021-04-23T11:59:56Z</time>
      </trkpt>
      <trkpt lat="49.82242" lon="4.8864">
        <ele>344.3</ele>
        <time>2021-04-23T11:59:58Z</time>
      </trkpt>
      <trkpt lat="49.82245" lon="4.88645">
        <ele>353.8</ele>
        <time>2021-04-23T11:59:59Z</time>
      </trkpt>
      <trkpt lat="49.82253" lon="4.88655">
        <ele>342.7</ele>
        <time>2021-04-23T12:00:02Z</time>
      </trkpt>
      <trkpt lat="49.82259" lon="4.88665">
        <ele>332</ele>
        <time>2021-04-23T12:00:04Z</time>
      </trkpt>
      <trkpt lat="49.82263" lon="4.8867">
        <ele>326.5</ele>
        <time>2021-04-23T12:00:05Z</time>
      </trkpt>
      <trkpt lat="49.82271" lon="4.8868">
        <ele>344.9</ele>
        <time>2021-04-23T12:00:07Z</time>
      </trkpt>
      <trkpt lat="49.82275" lon="4.88684">
        <ele>332.8</ele>
        <time>2021-04-23T12:00:08Z</time>
      </trkpt>
      <trkpt lat="49.82283" lon="4.88694">
        <ele>350.3</ele>
        <time>2021-04-23T12:00:10Z</time>
      </trkpt>
      <trkpt lat="49.82286" lon="4.887">
        <ele>335.7</ele>
        <time>2021-04-23T12:00:11Z</time>
      </trkpt>
      <trkpt lat="49.82292" lon="4.88712">
        <ele>328.3</ele>
        <time>2021-04-23T12:00:13Z</time>
      </trkpt>
      <trkpt lat="49.82294" lon="4.8872">
        <ele>357.6</ele>
        <time>2021-04-23T12:00:14Z</time>
      </trkpt>
      <trkpt lat="49.82296" lon="4.88727">
        <ele>332.2</ele>
        <time>2021-04-23T12:00:15Z</time>
      </trkpt>
      <trkpt lat="49.82299" lon="4.88743">
        <ele>332.1</ele>
        <time>2021-04-23T12:00:17Z</time>
      </trkpt>
      <trkpt lat="49.823" lon="4.8875">
        <ele>345.4</ele>
        <time>2021-04-23T12:00:18Z</time>
      </trkpt>
      <trkpt lat="49.82301" lon="4.88761">
        <ele>351.1</ele>
        <time>2021-04-23T12:00:20Z</time>
      </trkpt>
      <trkpt lat="49.823" lon="4.88773">
        <ele>333.4</ele>
        <time>2021-04-23T12:00:22Z</time>
      </trkpt>
      <trkpt lat="49.823" lon="4.88787">
        <ele>348.6</ele>
        <time>2021-04-23T12:00:24Z</time>
      </trkpt>
      <trkpt lat="49.82297" lon="4.88805">
        <ele>351.1</ele>
        <time>2021-04-23T12:00:27Z</time>
      </trkpt>
      <trkpt lat="49.82295" lon="4.88822">
        <ele>321.2</ele>
        <time>2021-04-23T12:00:29Z</time>
      </trkpt>
      <trkpt lat="49.82293" lon="4.88837">
        <ele>343.5</ele>
        <time>2021-04-23T12:00:31Z</time>
      </trkpt>
      <trkpt lat="49.82292" lon="4.88853">
        <ele>357.6</ele>
        <time>2021-04-23T12:00:33Z</time>
      </trkpt>
      <trkpt lat="49.82289" lon="4.8887">
        <ele>356.9</ele>
        <time>2021-04-23T12:00:35Z</time>
      </trkpt>
      <trkpt lat="49.82288" lon="4.88886">
        <ele>350.7</ele>
        <time>2021-04-23T12:00:37Z</time>
      </trkpt>
      <trkpt lat="49.82287" lon="4.88894">
        <ele>343.9</ele>
        <time>2021-04-23T12:00:38Z</time>
      </trkpt>
      <trkpt lat="49.82284" lon="4.88907">
        <ele>340.6</ele>
        <time>2021-04-23T12:00:39Z</time>
      </trkpt>
      <trkpt lat="49.82282" lon="4.88917">
        <ele>342.4</ele>
        <time>2021-04-23T12:00:42Z</time>
      </trkpt>
      <trkpt lat="49.8228" lon="4.8893">
        <ele>325.4</ele>
        <time>2021-04-23T12:00:44Z</time>
      </trkpt>
      <trkpt lat="49.82278" lon="4.8894">
        <ele>350.9</ele>
        <time>2021-04-23T12:00:46Z</time>
      </trkpt>
      <trkpt lat="49.82278" lon="4.88948">
        <ele>341</ele>
        <time>2021-04-23T12:00:49Z</time>
      </trkpt>
      <trkpt lat="49.82275" lon="4.88959">
        <ele>346.2</ele>
        <time>2021-04-23T12:00:52Z</time>
      </trkpt>
      <trkpt lat="49.82273" lon="4.88965">
        <ele>354</ele>
        <time>2021-04-23T12:00:54Z</time>
      </trkpt>
      <trkpt lat="49.82269" lon="4.88975">
        <ele>361.7</ele>
        <time>2021-04-23T12:00:57Z</time>
      </trkpt>
      <trkpt lat="49.82267" lon="4.88984">
        <ele>359.1</ele>
        <time>2021-04-23T12:01:01Z</time>
      </trkpt>
      <trkpt lat="49.82265" lon="4.88991">
        <ele>344.9</ele>
        <time>2021-04-23T12:01:04Z</time>
      </trkpt>
      <trkpt lat="49.82262" lon="4.88999">
        <ele>342.4</ele>
        <time>2021-04-23T12:01:07Z</time>
      </trkpt>
      <trkpt lat="49.82258" lon="4.89007">
        <ele>348.3</ele>
        <time>2021-04-23T12:01:10Z</time>
      </trkpt>
      <trkpt lat="49.82254" lon="4.89017">
        <ele>339.9</ele>
        <time>2021-04-23T12:01:13Z</time>
      </trkpt>
      <trkpt lat="49.8225" lon="4.89022">
        <ele>347.1</ele>
        <time>2021-04-23T12:01:15Z</time>
      </trkpt>
      <trkpt lat="49.82247" lon="4.8903">
        <ele>360.6</ele>
        <time>2021-04-23T12:01:18Z</time>
      </trkpt>
      <trkpt lat="49.82242" lon="4.8903">
        <ele>366.3</ele>
        <time>2021-04-23T12:01:23Z</time>
      </trkpt>
      <trkpt lat="49.82246" lon="4.89025">
        <ele>346.8</ele>
        <time>2021-04-23T12:01:44Z</time>
      </trkpt>
      <trkpt lat="49.82244" lon="4.89032">
        <ele>347.4</ele>
        <time>2021-04-23T12:01:56Z</time>
      </trkpt>
      <trkpt lat="49.8224" lon="4.89035">
        <ele>334.7</ele>
        <time>2021-04-23T12:02:12Z</time>
      </trkpt>
      <trkpt lat="49.82236" lon="4.89029">
        <ele>346.2</ele>
        <time>2021-04-23T12:02:16Z</time>
      </trkpt>
      <trkpt lat="49.82227" lon="4.89025">
        <ele>336.4</ele>
        <time>2021-04-23T12:02:19Z</time>
      </trkpt>
      <trkpt lat="49.82216" lon="4.89022">
        <ele>326.1</ele>
        <time>2021-04-23T12:02:22Z</time>
      </trkpt>
      <trkpt lat="49.82209" lon="4.89021">
        <ele>351.2</ele>
        <time>2021-04-23T12:02:24Z</time>
      </trkpt>
      <trkpt lat="49.82204" lon="4.89022">
        <ele>335.4</ele>
        <time>2021-04-23T12:02:25Z</time>
      </trkpt>
      <trkpt lat="49.82192" lon="4.8902">
        <ele>317.8</ele>
        <time>2021-04-23T12:02:26Z</time>
      </trkpt>
      <trkpt lat="49.82179" lon="4.89015">
        <ele>320.5</ele>
        <time>2021-04-23T12:02:28Z</time>
      </trkpt>
      <trkpt lat="49.82165" lon="4.89006">
        <ele>306.6</ele>
        <time>2021-04-23T12:02:29Z</time>
      </trkpt>
      <trkpt lat="49.82149" lon="4.88995">
        <ele>311.8</ele>
        <time>2021-04-23T12:02:32Z</time>
      </trkpt>
      <trkpt lat="49.82135" lon="4.88986">
        <ele>323.6</ele>
        <time>2021-04-23T12:02:34Z</time>
      </trkpt>
      <trkpt lat="49.82121" lon="4.88977">
        <ele>311.6</ele>
        <time>2021-04-23T12:02:36Z</time>
      </trkpt>
      <trkpt lat="49.82115" lon="4.88973">
        <ele>330.3</ele>
        <time>2021-04-23T12:02:37Z</time>
      </trkpt>
      <trkpt lat="49.82104" lon="4.88968">
        <ele>311.2</ele>
        <time>2021-04-23T12:02:39Z</time>
      </trkpt>
      <trkpt lat="49.82098" lon="4.88966">
        <ele>312.6</ele>
        <time>2021-04-23T12:02:40Z</time>
      </trkpt>
      <trkpt lat="49.82084" lon="4.88962">
        <ele>321.3</ele>
        <time>2021-04-23T12:02:42Z</time>
      </trkpt>
      <trkpt lat="49.82069" lon="4.8896">
        <ele>327.2</ele>
        <time>2021-04-23T12:02:44Z</time>
      </trkpt>
      <trkpt lat="49.82054" lon="4.8896">
        <ele>313.6</ele>
        <time>2021-04-23T12:02:46Z</time>
      </trkpt>
      <trkpt lat="49.82036" lon="4.8896">
        <ele>326.8</ele>
        <time>2021-04-23T12:02:48Z</time>
      </trkpt>
      <trkpt lat="49.82027" lon="4.8896">
        <ele>334.1</ele>
        <time>2021-04-23T12:02:49Z</time>
      </trkpt>
      <trkpt lat="49.82011" lon="4.88955">
        <ele>325.8</ele>
        <time>2021-04-23T12:02:51Z</time>
      </trkpt>
      <trkpt lat="49.82003" lon="4.88951">
        <ele>317.7</ele>
        <time>2021-04-23T12:02:52Z</time>
      </trkpt>
      <trkpt lat="49.81994" lon="4.88943">
        <ele>327.1</ele>
        <time>2021-04-23T12:02:53Z</time>
      </trkpt>
      <trkpt lat="49.8198" lon="4.88923">
        <ele>323.4</ele>
        <time>2021-04-23T12:02:55Z</time>
      </trkpt>
      <trkpt lat="49.8197" lon="4.889">
        <ele>314.1</ele>
        <time>2021-04-23T12:02:57Z</time>
      </trkpt>
      <trkpt lat="49.81965" lon="4.88887">
        <ele>322.9</ele>
        <time>2021-04-23T12:02:58Z</time>
      </trkpt>
      <trkpt lat="49.81956" lon="4.8886">
        <ele>310</ele>
        <time>2021-04-23T12:02:59Z</time>
      </trkpt>
      <trkpt lat="49.81951" lon="4.88843">
        <ele>343.1</ele>
        <time>2021-04-23T12:03:01Z</time>
      </trkpt>
      <trkpt lat="49.81942" lon="4.88816">
        <ele>322.5</ele>
        <time>2021-04-23T12:03:03Z</time>
      </trkpt>
      <trkpt lat="49.81931" lon="4.88788">
        <ele>325.1</ele>
        <time>2021-04-23T12:03:05Z</time>
      </trkpt>
      <trkpt lat="49.81926" lon="4.88774">
        <ele>332.2</ele>
        <time>2021-04-23T12:03:06Z</time>
      </trkpt>
      <trkpt lat="49.81915" lon="4.88746">
        <ele>314.2</ele>
        <time>2021-04-23T12:03:08Z</time>
      </trkpt>
      <trkpt lat="49.8191" lon="4.88732">
        <ele>326.9</ele>
        <time>2021-04-23T12:03:09Z</time>
      </trkpt>
      <trkpt lat="49.81906" lon="4.88718">
        <ele>315.5</ele>
        <time>2021-04-23T12:03:10Z</time>
      </trkpt>
      <trkpt lat="49.81896" lon="4.8869">
        <ele>319</ele>
        <time>2021-04-23T12:03:12Z</time>
      </trkpt>
      <trkpt lat="49.81886" lon="4.88662">
        <ele>310.9</ele>
        <time>2021-04-23T12:03:14Z</time>
      </trkpt>
      <trkpt lat="49.81876" lon="4.88634">
        <ele>310.9</ele>
        <time>2021-04-23T12:03:16Z</time>
      </trkpt>
      <trkpt lat="49.81867" lon="4.88609">
        <ele>320.7</ele>
        <time>2021-04-23T12:03:17Z</time>
      </trkpt>
      <trkpt lat="49.81862" lon="4.88596">
        <ele>337.4</ele>
        <time>2021-04-23T12:03:19Z</time>
      </trkpt>
      <trkpt lat="49.81853" lon="4.8857">
        <ele>329.1</ele>
        <time>2021-04-23T12:03:20Z</time>
      </trkpt>
      <trkpt lat="49.81848" lon="4.88557">
        <ele>311.4</ele>
        <time>2021-04-23T12:03:22Z</time>
      </trkpt>
      <trkpt lat="49.81843" lon="4.88544">
        <ele>316.6</ele>
        <time>2021-04-23T12:03:23Z</time>
      </trkpt>
      <trkpt lat="49.81832" lon="4.88521">
        <ele>318.4</ele>
        <time>2021-04-23T12:03:25Z</time>
      </trkpt>
      <trkpt lat="49.81824" lon="4.88511">
        <ele>309.6</ele>
        <time>2021-04-23T12:03:26Z</time>
      </trkpt>
      <trkpt lat="49.81808" lon="4.88496">
        <ele>317.9</ele>
        <time>2021-04-23T12:03:28Z</time>
      </trkpt>
      <trkpt lat="49.81799" lon="4.88491">
        <ele>300.7</ele>
        <time>2021-04-23T12:03:29Z</time>
      </trkpt>
      <trkpt lat="49.8179" lon="4.88487">
        <ele>312.9</ele>
        <time>2021-04-23T12:03:30Z</time>
      </trkpt>
      <trkpt lat="49.81771" lon="4.88477">
        <ele>334.6</ele>
        <time>2021-04-23T12:03:32Z</time>
      </trkpt>
      <trkpt lat="49.81761" lon="4.88473">
        <ele>282.5</ele>
        <time>2021-04-23T12:03:33Z</time>
      </trkpt>
      <trkpt lat="49.81751" lon="4.88469">
        <ele>331.3</ele>
        <time>2021-04-23T12:03:34Z</time>
      </trkpt>
      <trkpt lat="49.81731" lon="4.88464">
        <ele>304.7</ele>
        <time>2021-04-23T12:03:36Z</time>
      </trkpt>
      <trkpt lat="49.81722" lon="4.88463">
        <ele>325.2</ele>
        <time>2021-04-23T12:03:37Z</time>
      </trkpt>
      <trkpt lat="49.81705" lon="4.88467">
        <ele>305.2</ele>
        <time>2021-04-23T12:03:38Z</time>
      </trkpt>
      <trkpt lat="49.81697" lon="4.88473">
        <ele>306.9</ele>
        <time>2021-04-23T12:03:39Z</time>
      </trkpt>
      <trkpt lat="49.81684" lon="4.88491">
        <ele>308.3</ele>
        <time>2021-04-23T12:03:42Z</time>
      </trkpt>
      <trkpt lat="49.8167" lon="4.88509">
        <ele>303.5</ele>
        <time>2021-04-23T12:03:44Z</time>
      </trkpt>
      <trkpt lat="49.81656" lon="4.88529">
        <ele>306.9</ele>
        <time>2021-04-23T12:03:46Z</time>
      </trkpt>
      <trkpt lat="49.81649" lon="4.88539">
        <ele>320.1</ele>
        <time>2021-04-23T12:03:47Z</time>
      </trkpt>
      <trkpt lat="49.81636" lon="4.88558">
        <ele>309.9</ele>
        <time>2021-04-23T12:03:49Z</time>
      </trkpt>
      <trkpt lat="49.81629" lon="4.88566">
        <ele>291.4</ele>
        <time>2021-04-23T12:03:50Z</time>
      </trkpt>
      <trkpt lat="49.81617" lon="4.88574">
        <ele>315.9</ele>
        <time>2021-04-23T12:03:52Z</time>
      </trkpt>
      <trkpt lat="49.8161" lon="4.88574">
        <ele>299.2</ele>
        <time>2021-04-23T12:03:53Z</time>
      </trkpt>
      <trkpt lat="49.81604" lon="4.88572">
        <ele>306.8</ele>
        <time>2021-04-23T12:03:54Z</time>
      </trkpt>
      <trkpt lat="49.81597" lon="4.88556">
        <ele>304.8</ele>
        <time>2021-04-23T12:03:56Z</time>
      </trkpt>
      <trkpt lat="49.81597" lon="4.88542">
        <ele>296.9</ele>
        <time>2021-04-23T12:03:57Z</time>
      </trkpt>
      <trkpt lat="49.81597" lon="4.88527">
        <ele>283.2</ele>
        <time>2021-04-23T12:03:58Z</time>
      </trkpt>
      <trkpt lat="49.81599" lon="4.88502">
        <ele>310.8</ele>
        <time>2021-04-23T12:04:00Z</time>
      </trkpt>
      <trkpt lat="49.81603" lon="4.88479">
        <ele>302.1</ele>
        <time>2021-04-23T12:04:02Z</time>
      </trkpt>
      <trkpt lat="49.81609" lon="4.88456">
        <ele>289.9</ele>
        <time>2021-04-23T12:04:04Z</time>
      </trkpt>
      <trkpt lat="49.81614" lon="4.88445">
        <ele>282.7</ele>
        <time>2021-04-23T12:04:05Z</time>
      </trkpt>
      <trkpt lat="49.81618" lon="4.88435">
        <ele>293.3</ele>
        <time>2021-04-23T12:04:06Z</time>
      </trkpt>
      <trkpt lat="49.81625" lon="4.88414">
        <ele>289.7</ele>
        <time>2021-04-23T12:04:08Z</time>
      </trkpt>
      <trkpt lat="49.81634" lon="4.88393">
        <ele>302.9</ele>
        <time>2021-04-23T12:04:10Z</time>
      </trkpt>
      <trkpt lat="49.81644" lon="4.88374">
        <ele>281.1</ele>
        <time>2021-04-23T12:04:11Z</time>
      </trkpt>
      <trkpt lat="49.8165" lon="4.88364">
        <ele>282.5</ele>
        <time>2021-04-23T12:04:13Z</time>
      </trkpt>
      <trkpt lat="49.81654" lon="4.88355">
        <ele>307.4</ele>
        <time>2021-04-23T12:04:14Z</time>
      </trkpt>
      <trkpt lat="49.81666" lon="4.88336">
        <ele>295.2</ele>
        <time>2021-04-23T12:04:16Z</time>
      </trkpt>
      <trkpt lat="49.81678" lon="4.88318">
        <ele>287.1</ele>
        <time>2021-04-23T12:04:18Z</time>
      </trkpt>
      <trkpt lat="49.81683" lon="4.88309">
        <ele>301.8</ele>
        <time>2021-04-23T12:04:19Z</time>
      </trkpt>
      <trkpt lat="49.81694" lon="4.88288">
        <ele>309.3</ele>
        <time>2021-04-23T12:04:21Z</time>
      </trkpt>
      <trkpt lat="49.81699" lon="4.88277">
        <ele>277.6</ele>
        <time>2021-04-23T12:04:22Z</time>
      </trkpt>
      <trkpt lat="49.81708" lon="4.88254">
        <ele>284.6</ele>
        <time>2021-04-23T12:04:24Z</time>
      </trkpt>
      <trkpt lat="49.81713" lon="4.8823">
        <ele>271</ele>
        <time>2021-04-23T12:04:25Z</time>
      </trkpt>
      <trkpt lat="49.81719" lon="4.88206">
        <ele>287.5</ele>
        <time>2021-04-23T12:04:27Z</time>
      </trkpt>
      <trkpt lat="49.81724" lon="4.88183">
        <ele>289.5</ele>
        <time>2021-04-23T12:04:29Z</time>
      </trkpt>
      <trkpt lat="49.81729" lon="4.88159">
        <ele>269.4</ele>
        <time>2021-04-23T12:04:31Z</time>
      </trkpt>
      <trkpt lat="49.81732" lon="4.88145">
        <ele>293.8</ele>
        <time>2021-04-23T12:04:32Z</time>
      </trkpt>
      <trkpt lat="49.81734" lon="4.88133">
        <ele>289.1</ele>
        <time>2021-04-23T12:04:33Z</time>
      </trkpt>
      <trkpt lat="49.81737" lon="4.88108">
        <ele>285.2</ele>
        <time>2021-04-23T12:04:35Z</time>
      </trkpt>
      <trkpt lat="49.81739" lon="4.88084">
        <ele>294.9</ele>
        <time>2021-04-23T12:04:37Z</time>
      </trkpt>
      <trkpt lat="49.81738" lon="4.88057">
        <ele>285.6</ele>
        <time>2021-04-23T12:04:39Z</time>
      </trkpt>
      <trkpt lat="49.81736" lon="4.88042">
        <ele>288.6</ele>
        <time>2021-04-23T12:04:41Z</time>
      </trkpt>
      <trkpt lat="49.81731" lon="4.88014">
        <ele>286.4</ele>
        <time>2021-04-23T12:04:42Z</time>
      </trkpt>
      <trkpt lat="49.81728" lon="4.88">
        <ele>283.7</ele>
        <time>2021-04-23T12:04:44Z</time>
      </trkpt>
      <trkpt lat="49.81722" lon="4.87976">
        <ele>290.4</ele>
        <time>2021-04-23T12:04:46Z</time>
      </trkpt>
      <trkpt lat="49.81715" lon="4.87953">
        <ele>273.9</ele>
        <time>2021-04-23T12:04:47Z</time>
      </trkpt>
      <trkpt lat="49.81712" lon="4.87939">
        <ele>277.2</ele>
        <time>2021-04-23T12:04:49Z</time>
      </trkpt>
      <trkpt lat="49.81709" lon="4.87916">
        <ele>272.5</ele>
        <time>2021-04-23T12:04:50Z</time>
      </trkpt>
      <trkpt lat="49.81708" lon="4.87901">
        <ele>261.5</ele>
        <time>2021-04-23T12:04:52Z</time>
      </trkpt>
      <trkpt lat="49.81708" lon="4.87875">
        <ele>285.2</ele>
        <time>2021-04-23T12:04:54Z</time>
      </trkpt>
      <trkpt lat="49.81707" lon="4.87848">
        <ele>292.1</ele>
        <time>2021-04-23T12:04:56Z</time>
      </trkpt>
      <trkpt lat="49.81708" lon="4.87822">
        <ele>289.4</ele>
        <time>2021-04-23T12:04:58Z</time>
      </trkpt>
      <trkpt lat="49.81711" lon="4.87796">
        <ele>289.4</ele>
        <time>2021-04-23T12:05:00Z</time>
      </trkpt>
      <trkpt lat="49.81712" lon="4.8777">
        <ele>303.2</ele>
        <time>2021-04-23T12:05:02Z</time>
      </trkpt>
      <trkpt lat="49.81712" lon="4.87742">
        <ele>300.5</ele>
        <time>2021-04-23T12:05:04Z</time>
      </trkpt>
      <trkpt lat="49.8171" lon="4.87717">
        <ele>284.6</ele>
        <time>2021-04-23T12:05:06Z</time>
      </trkpt>
      <trkpt lat="49.81705" lon="4.87695">
        <ele>283.5</ele>
        <time>2021-04-23T12:05:08Z</time>
      </trkpt>
      <trkpt lat="49.81699" lon="4.87675">
        <ele>271.4</ele>
        <time>2021-04-23T12:05:10Z</time>
      </trkpt>
      <trkpt lat="49.8169" lon="4.87662">
        <ele>261.6</ele>
        <time>2021-04-23T12:05:12Z</time>
      </trkpt>
      <trkpt lat="49.81676" lon="4.87659">
        <ele>279.5</ele>
        <time>2021-04-23T12:05:14Z</time>
      </trkpt>
      <trkpt lat="49.81669" lon="4.8766">
        <ele>293.4</ele>
        <time>2021-04-23T12:05:15Z</time>
      </trkpt>
      <trkpt lat="49.81662" lon="4.87662">
        <ele>287.4</ele>
        <time>2021-04-23T12:05:16Z</time>
      </trkpt>
      <trkpt lat="49.8165" lon="4.87663">
        <ele>291.5</ele>
        <time>2021-04-23T12:05:18Z</time>
      </trkpt>
      <trkpt lat="49.81644" lon="4.87659">
        <ele>281.5</ele>
        <time>2021-04-23T12:05:19Z</time>
      </trkpt>
      <trkpt lat="49.81633" lon="4.87647">
        <ele>275.6</ele>
        <time>2021-04-23T12:05:21Z</time>
      </trkpt>
      <trkpt lat="49.81629" lon="4.87638">
        <ele>269.9</ele>
        <time>2021-04-23T12:05:22Z</time>
      </trkpt>
      <trkpt lat="49.81623" lon="4.87618">
        <ele>257</ele>
        <time>2021-04-23T12:05:24Z</time>
      </trkpt>
      <trkpt lat="49.8162" lon="4.87607">
        <ele>280.6</ele>
        <time>2021-04-23T12:05:25Z</time>
      </trkpt>
      <trkpt lat="49.81618" lon="4.87587">
        <ele>285.8</ele>
        <time>2021-04-23T12:05:27Z</time>
      </trkpt>
      <trkpt lat="49.81618" lon="4.87576">
        <ele>296.1</ele>
        <time>2021-04-23T12:05:28Z</time>
      </trkpt>
      <trkpt lat="49.81619" lon="4.87565">
        <ele>279.7</ele>
        <time>2021-04-23T12:05:29Z</time>
      </trkpt>
      <trkpt lat="49.8162" lon="4.87555">
        <ele>271.7</ele>
        <time>2021-04-23T12:05:30Z</time>
      </trkpt>
      <trkpt lat="49.81621" lon="4.87536">
        <ele>282.4</ele>
        <time>2021-04-23T12:05:32Z</time>
      </trkpt>
      <trkpt lat="49.81619" lon="4.87516">
        <ele>275.6</ele>
        <time>2021-04-23T12:05:34Z</time>
      </trkpt>
      <trkpt lat="49.81613" lon="4.87497">
        <ele>264.5</ele>
        <time>2021-04-23T12:05:36Z</time>
      </trkpt>
      <trkpt lat="49.81609" lon="4.87489">
        <ele>274.9</ele>
        <time>2021-04-23T12:05:37Z</time>
      </trkpt>
      <trkpt lat="49.81604" lon="4.87481">
        <ele>255.4</ele>
        <time>2021-04-23T12:05:38Z</time>
      </trkpt>
      <trkpt lat="49.81595" lon="4.87466">
        <ele>268</ele>
        <time>2021-04-23T12:05:40Z</time>
      </trkpt>
      <trkpt lat="49.81591" lon="4.87457">
        <ele>269.6</ele>
        <time>2021-04-23T12:05:41Z</time>
      </trkpt>
      <trkpt lat="49.81583" lon="4.87441">
        <ele>278.5</ele>
        <time>2021-04-23T12:05:43Z</time>
      </trkpt>
      <trkpt lat="49.81574" lon="4.87423">
        <ele>278.6</ele>
        <time>2021-04-23T12:05:45Z</time>
      </trkpt>
      <trkpt lat="49.81571" lon="4.87415">
        <ele>280.7</ele>
        <time>2021-04-23T12:05:46Z</time>
      </trkpt>
      <trkpt lat="49.81567" lon="4.87407">
        <ele>272.2</ele>
        <time>2021-04-23T12:05:47Z</time>
      </trkpt>
      <trkpt lat="49.8156" lon="4.87389">
        <ele>271.2</ele>
        <time>2021-04-23T12:05:49Z</time>
      </trkpt>
      <trkpt lat="49.81552" lon="4.87373">
        <ele>282.6</ele>
        <time>2021-04-23T12:05:51Z</time>
      </trkpt>
      <trkpt lat="49.81549" lon="4.87364">
        <ele>274.2</ele>
        <time>2021-04-23T12:05:52Z</time>
      </trkpt>
      <trkpt lat="49.81546" lon="4.87346">
        <ele>278.5</ele>
        <time>2021-04-23T12:05:54Z</time>
      </trkpt>
      <trkpt lat="49.81543" lon="4.87326">
        <ele>297.3</ele>
        <time>2021-04-23T12:05:56Z</time>
      </trkpt>
      <trkpt lat="49.81539" lon="4.87305">
        <ele>297.4</ele>
        <time>2021-04-23T12:05:58Z</time>
      </trkpt>
      <trkpt lat="49.81535" lon="4.87281">
        <ele>273.9</ele>
        <time>2021-04-23T12:06:00Z</time>
      </trkpt>
      <trkpt lat="49.81534" lon="4.87271">
        <ele>264.5</ele>
        <time>2021-04-23T12:06:01Z</time>
      </trkpt>
      <trkpt lat="49.81532" lon="4.87252">
        <ele>263.5</ele>
        <time>2021-04-23T12:06:03Z</time>
      </trkpt>
      <trkpt lat="49.8153" lon="4.87232">
        <ele>271.6</ele>
        <time>2021-04-23T12:06:05Z</time>
      </trkpt>
      <trkpt lat="49.81528" lon="4.87212">
        <ele>273.7</ele>
        <time>2021-04-23T12:06:07Z</time>
      </trkpt>
      <trkpt lat="49.81527" lon="4.87193">
        <ele>294.7</ele>
        <time>2021-04-23T12:06:09Z</time>
      </trkpt>
      <trkpt lat="49.81525" lon="4.87172">
        <ele>271.3</ele>
        <time>2021-04-23T12:06:11Z</time>
      </trkpt>
      <trkpt lat="49.81522" lon="4.87159">
        <ele>276</ele>
        <time>2021-04-23T12:06:12Z</time>
      </trkpt>
      <trkpt lat="49.81516" lon="4.87136">
        <ele>296.5</ele>
        <time>2021-04-23T12:06:14Z</time>
      </trkpt>
      <trkpt lat="49.81512" lon="4.87116">
        <ele>274.9</ele>
        <time>2021-04-23T12:06:16Z</time>
      </trkpt>
      <trkpt lat="49.81509" lon="4.87106">
        <ele>277.2</ele>
        <time>2021-04-23T12:06:17Z</time>
      </trkpt>
      <trkpt lat="49.81507" lon="4.87096">
        <ele>279.5</ele>
        <time>2021-04-23T12:06:18Z</time>
      </trkpt>
      <trkpt lat="49.81503" lon="4.87078">
        <ele>274.5</ele>
        <time>2021-04-23T12:06:20Z</time>
      </trkpt>
      <trkpt lat="49.81497" lon="4.87062">
        <ele>266.4</ele>
        <time>2021-04-23T12:06:22Z</time>
      </trkpt>
      <trkpt lat="49.81488" lon="4.87048">
        <ele>277.9</ele>
        <time>2021-04-23T12:06:24Z</time>
      </trkpt>
      <trkpt lat="49.81479" lon="4.87035">
        <ele>260.3</ele>
        <time>2021-04-23T12:06:26Z</time>
      </trkpt>
      <trkpt lat="49.81474" lon="4.87029">
        <ele>264.2</ele>
        <time>2021-04-23T12:06:27Z</time>
      </trkpt>
      <trkpt lat="49.81462" lon="4.87018">
        <ele>269.2</ele>
        <time>2021-04-23T12:06:29Z</time>
      </trkpt>
      <trkpt lat="49.81455" lon="4.87014">
        <ele>275.4</ele>
        <time>2021-04-23T12:06:30Z</time>
      </trkpt>
      <trkpt lat="49.81444" lon="4.87007">
        <ele>283.4</ele>
        <time>2021-04-23T12:06:32Z</time>
      </trkpt>
      <trkpt lat="49.81432" lon="4.87">
        <ele>278.8</ele>
        <time>2021-04-23T12:06:34Z</time>
      </trkpt>
      <trkpt lat="49.8142" lon="4.86993">
        <ele>260.1</ele>
        <time>2021-04-23T12:06:36Z</time>
      </trkpt>
      <trkpt lat="49.81414" lon="4.8699">
        <ele>271.8</ele>
        <time>2021-04-23T12:06:37Z</time>
      </trkpt>
      <trkpt lat="49.81408" lon="4.86988">
        <ele>278.2</ele>
        <time>2021-04-23T12:06:38Z</time>
      </trkpt>
      <trkpt lat="49.81398" lon="4.86982">
        <ele>255.8</ele>
        <time>2021-04-23T12:06:40Z</time>
      </trkpt>
      <trkpt lat="49.81388" lon="4.86976">
        <ele>274.3</ele>
        <time>2021-04-23T12:06:42Z</time>
      </trkpt>
      <trkpt lat="49.81382" lon="4.86974">
        <ele>299.1</ele>
        <time>2021-04-23T12:06:43Z</time>
      </trkpt>
      <trkpt lat="49.81377" lon="4.86972">
        <ele>259.8</ele>
        <time>2021-04-23T12:06:44Z</time>
      </trkpt>
      <trkpt lat="49.81366" lon="4.86969">
        <ele>265.2</ele>
        <time>2021-04-23T12:06:46Z</time>
      </trkpt>
      <trkpt lat="49.81357" lon="4.86963">
        <ele>280.6</ele>
        <time>2021-04-23T12:06:48Z</time>
      </trkpt>
      <trkpt lat="49.81346" lon="4.86959">
        <ele>276.3</ele>
        <time>2021-04-23T12:06:50Z</time>
      </trkpt>
      <trkpt lat="49.81336" lon="4.86956">
        <ele>278.6</ele>
        <time>2021-04-23T12:06:52Z</time>
      </trkpt>
      <trkpt lat="49.81325" lon="4.86953">
        <ele>269.1</ele>
        <time>2021-04-23T12:06:54Z</time>
      </trkpt>
      <trkpt lat="49.81313" lon="4.86949">
        <ele>262.3</ele>
        <time>2021-04-23T12:06:56Z</time>
      </trkpt>
      <trkpt lat="49.81302" lon="4.86946">
        <ele>280.1</ele>
        <time>2021-04-23T12:06:58Z</time>
      </trkpt>
      <trkpt lat="49.8129" lon="4.86944">
        <ele>273</ele>
        <time>2021-04-23T12:07:00Z</time>
      </trkpt>
      <trkpt lat="49.81283" lon="4.86944">
        <ele>273.4</ele>
        <time>2021-04-23T12:07:01Z</time>
      </trkpt>
      <trkpt lat="49.81272" lon="4.86943">
        <ele>252.8</ele>
        <time>2021-04-23T12:07:03Z</time>
      </trkpt>
      <trkpt lat="49.81267" lon="4.86943">
        <ele>275.5</ele>
        <time>2021-04-23T12:07:04Z</time>
      </trkpt>
      <trkpt lat="49.81256" lon="4.86945">
        <ele>259.1</ele>
        <time>2021-04-23T12:07:06Z</time>
      </trkpt>
      <trkpt lat="49.81247" lon="4.86948">
        <ele>263.7</ele>
        <time>2021-04-23T12:07:08Z</time>
      </trkpt>
      <trkpt lat="49.81242" lon="4.86951">
        <ele>253.9</ele>
        <time>2021-04-23T12:07:09Z</time>
      </trkpt>
      <trkpt lat="49.81234" lon="4.86959">
        <ele>254.1</ele>
        <time>2021-04-23T12:07:11Z</time>
      </trkpt>
      <trkpt lat="49.81224" lon="4.8697">
        <ele>273</ele>
        <time>2021-04-23T12:07:13Z</time>
      </trkpt>
      <trkpt lat="49.8122" lon="4.86976">
        <ele>267.4</ele>
        <time>2021-04-23T12:07:14Z</time>
      </trkpt>
      <trkpt lat="49.81212" lon="4.8699">
        <ele>239</ele>
        <time>2021-04-23T12:07:16Z</time>
      </trkpt>
      <trkpt lat="49.81208" lon="4.86997">
        <ele>266.1</ele>
        <time>2021-04-23T12:07:17Z</time>
      </trkpt>
      <trkpt lat="49.81205" lon="4.87005">
        <ele>275.2</ele>
        <time>2021-04-23T12:07:18Z</time>
      </trkpt>
      <trkpt lat="49.81199" lon="4.87019">
        <ele>267.2</ele>
        <time>2021-04-23T12:07:20Z</time>
      </trkpt>
      <trkpt lat="49.81197" lon="4.87026">
        <ele>260.2</ele>
        <time>2021-04-23T12:07:21Z</time>
      </trkpt>
      <trkpt lat="49.81191" lon="4.8704">
        <ele>251</ele>
        <time>2021-04-23T12:07:23Z</time>
      </trkpt>
      <trkpt lat="49.81188" lon="4.87047">
        <ele>270.8</ele>
        <time>2021-04-23T12:07:24Z</time>
      </trkpt>
      <trkpt lat="49.81183" lon="4.8706">
        <ele>236.4</ele>
        <time>2021-04-23T12:07:26Z</time>
      </trkpt>
      <trkpt lat="49.81178" lon="4.87074">
        <ele>271.7</ele>
        <time>2021-04-23T12:07:28Z</time>
      </trkpt>
      <trkpt lat="49.81172" lon="4.87089">
        <ele>263.7</ele>
        <time>2021-04-23T12:07:30Z</time>
      </trkpt>
      <trkpt lat="49.81164" lon="4.87104">
        <ele>252.1</ele>
        <time>2021-04-23T12:07:32Z</time>
      </trkpt>
      <trkpt lat="49.81155" lon="4.87117">
        <ele>255.9</ele>
        <time>2021-04-23T12:07:33Z</time>
      </trkpt>
      <trkpt lat="49.8115" lon="4.87122">
        <ele>251.6</ele>
        <time>2021-04-23T12:07:34Z</time>
      </trkpt>
      <trkpt lat="49.81144" lon="4.87122">
        <ele>264.7</ele>
        <time>2021-04-23T12:07:36Z</time>
      </trkpt>
      <trkpt lat="49.81133" lon="4.87116">
        <ele>250.3</ele>
        <time>2021-04-23T12:07:38Z</time>
      </trkpt>
      <trkpt lat="49.81128" lon="4.87111">
        <ele>285.1</ele>
        <time>2021-04-23T12:07:39Z</time>
      </trkpt>
      <trkpt lat="49.81123" lon="4.87105">
        <ele>266.8</ele>
        <time>2021-04-23T12:07:40Z</time>
      </trkpt>
      <trkpt lat="49.81113" lon="4.87094">
        <ele>271.4</ele>
        <time>2021-04-23T12:07:42Z</time>
      </trkpt>
      <trkpt lat="49.81109" lon="4.87087">
        <ele>255</ele>
        <time>2021-04-23T12:07:43Z</time>
      </trkpt>
      <trkpt lat="49.81102" lon="4.8707">
        <ele>251.2</ele>
        <time>2021-04-23T12:07:45Z</time>
      </trkpt>
      <trkpt lat="49.81098" lon="4.87056">
        <ele>253.6</ele>
        <time>2021-04-23T12:07:46Z</time>
      </trkpt>
      <trkpt lat="49.81096" lon="4.87045">
        <ele>255.5</ele>
        <time>2021-04-23T12:07:48Z</time>
      </trkpt>
      <trkpt lat="49.81094" lon="4.87033">
        <ele>259.2</ele>
        <time>2021-04-23T12:07:50Z</time>
      </trkpt>
      <trkpt lat="49.81092" lon="4.87018">
        <ele>264.3</ele>
        <time>2021-04-23T12:07:52Z</time>
      </trkpt>
      <trkpt lat="49.81093" lon="4.86998">
        <ele>260.9</ele>
        <time>2021-04-23T12:07:55Z</time>
      </trkpt>
      <trkpt lat="49.81094" lon="4.86988">
        <ele>272.9</ele>
        <time>2021-04-23T12:07:57Z</time>
      </trkpt>
      <trkpt lat="49.81092" lon="4.86981">
        <ele>270.6</ele>
        <time>2021-04-23T12:07:58Z</time>
      </trkpt>
      <trkpt lat="49.81099" lon="4.86971">
        <ele>242.5</ele>
        <time>2021-04-23T12:07:59Z</time>
      </trkpt>
      <trkpt lat="49.81102" lon="4.86963">
        <ele>270.4</ele>
        <time>2021-04-23T12:08:00Z</time>
      </trkpt>
      <trkpt lat="49.81105" lon="4.86947">
        <ele>263.1</ele>
        <time>2021-04-23T12:08:02Z</time>
      </trkpt>
      <trkpt lat="49.81107" lon="4.8694">
        <ele>265.9</ele>
        <time>2021-04-23T12:08:03Z</time>
      </trkpt>
      <trkpt lat="49.81109" lon="4.86933">
        <ele>261.7</ele>
        <time>2021-04-23T12:08:04Z</time>
      </trkpt>
      <trkpt lat="49.81112" lon="4.86918">
        <ele>261.2</ele>
        <time>2021-04-23T12:08:06Z</time>
      </trkpt>
      <trkpt lat="49.81115" lon="4.86902">
        <ele>261.5</ele>
        <time>2021-04-23T12:08:08Z</time>
      </trkpt>
      <trkpt lat="49.81115" lon="4.86894">
        <ele>257.7</ele>
        <time>2021-04-23T12:08:09Z</time>
      </trkpt>
      <trkpt lat="49.81116" lon="4.86876">
        <ele>260.8</ele>
        <time>2021-04-23T12:08:11Z</time>
      </trkpt>
      <trkpt lat="49.81116" lon="4.86867">
        <ele>267.6</ele>
        <time>2021-04-23T12:08:12Z</time>
      </trkpt>
      <trkpt lat="49.81117" lon="4.86858">
        <ele>256.7</ele>
        <time>2021-04-23T12:08:13Z</time>
      </trkpt>
      <trkpt lat="49.8112" lon="4.86841">
        <ele>253</ele>
        <time>2021-04-23T12:08:15Z</time>
      </trkpt>
      <trkpt lat="49.81121" lon="4.86832">
        <ele>242.3</ele>
        <time>2021-04-23T12:08:16Z</time>
      </trkpt>
      <trkpt lat="49.81122" lon="4.86822">
        <ele>247.9</ele>
        <time>2021-04-23T12:08:17Z</time>
      </trkpt>
      <trkpt lat="49.81125" lon="4.86804">
        <ele>267.4</ele>
        <time>2021-04-23T12:08:19Z</time>
      </trkpt>
      <trkpt lat="49.81127" lon="4.86783">
        <ele>253.1</ele>
        <time>2021-04-23T12:08:21Z</time>
      </trkpt>
      <trkpt lat="49.8113" lon="4.86764">
        <ele>262.8</ele>
        <time>2021-04-23T12:08:23Z</time>
      </trkpt>
      <trkpt lat="49.81135" lon="4.86743">
        <ele>234.8</ele>
        <time>2021-04-23T12:08:25Z</time>
      </trkpt>
      <trkpt lat="49.81143" lon="4.86722">
        <ele>225.7</ele>
        <time>2021-04-23T12:08:27Z</time>
      </trkpt>
      <trkpt lat="49.81145" lon="4.86713">
        <ele>236.3</ele>
        <time>2021-04-23T12:08:28Z</time>
      </trkpt>
      <trkpt lat="49.8115" lon="4.86692">
        <ele>247.6</ele>
        <time>2021-04-23T12:08:30Z</time>
      </trkpt>
      <trkpt lat="49.81152" lon="4.86681">
        <ele>248.9</ele>
        <time>2021-04-23T12:08:31Z</time>
      </trkpt>
      <trkpt lat="49.81156" lon="4.86661">
        <ele>242.9</ele>
        <time>2021-04-23T12:08:33Z</time>
      </trkpt>
      <trkpt lat="49.81159" lon="4.8664">
        <ele>251.8</ele>
        <time>2021-04-23T12:08:35Z</time>
      </trkpt>
      <trkpt lat="49.81161" lon="4.8663">
        <ele>264</ele>
        <time>2021-04-23T12:08:36Z</time>
      </trkpt>
      <trkpt lat="49.81165" lon="4.8661">
        <ele>241.5</ele>
        <time>2021-04-23T12:08:39Z</time>
      </trkpt>
      <trkpt lat="49.81167" lon="4.86592">
        <ele>255.8</ele>
        <time>2021-04-23T12:08:41Z</time>
      </trkpt>
      <trkpt lat="49.81169" lon="4.86582">
        <ele>270.7</ele>
        <time>2021-04-23T12:08:42Z</time>
      </trkpt>
      <trkpt lat="49.8117" lon="4.86572">
        <ele>255.5</ele>
        <time>2021-04-23T12:08:43Z</time>
      </trkpt>
      <trkpt lat="49.81172" lon="4.86553">
        <ele>235.3</ele>
        <time>2021-04-23T12:08:44Z</time>
      </trkpt>
      <trkpt lat="49.81173" lon="4.86542">
        <ele>245.8</ele>
        <time>2021-04-23T12:08:46Z</time>
      </trkpt>
      <trkpt lat="49.81175" lon="4.86521">
        <ele>239.2</ele>
        <time>2021-04-23T12:08:48Z</time>
      </trkpt>
      <trkpt lat="49.81176" lon="4.86511">
        <ele>270.4</ele>
        <time>2021-04-23T12:08:49Z</time>
      </trkpt>
      <trkpt lat="49.81178" lon="4.86493">
        <ele>250.7</ele>
        <time>2021-04-23T12:08:51Z</time>
      </trkpt>
      <trkpt lat="49.81179" lon="4.86483">
        <ele>227.4</ele>
        <time>2021-04-23T12:08:52Z</time>
      </trkpt>
      <trkpt lat="49.81182" lon="4.86463">
        <ele>249.7</ele>
        <time>2021-04-23T12:08:54Z</time>
      </trkpt>
      <trkpt lat="49.81185" lon="4.86441">
        <ele>251.6</ele>
        <time>2021-04-23T12:08:56Z</time>
      </trkpt>
      <trkpt lat="49.81187" lon="4.86422">
        <ele>245.1</ele>
        <time>2021-04-23T12:08:58Z</time>
      </trkpt>
      <trkpt lat="49.8119" lon="4.864">
        <ele>242.3</ele>
        <time>2021-04-23T12:09:00Z</time>
      </trkpt>
      <trkpt lat="49.81193" lon="4.86389">
        <ele>240</ele>
        <time>2021-04-23T12:09:01Z</time>
      </trkpt>
      <trkpt lat="49.81194" lon="4.86378">
        <ele>248.5</ele>
        <time>2021-04-23T12:09:02Z</time>
      </trkpt>
      <trkpt lat="49.81198" lon="4.86355">
        <ele>248</ele>
        <time>2021-04-23T12:09:04Z</time>
      </trkpt>
      <trkpt lat="49.812" lon="4.86344">
        <ele>244.3</ele>
        <time>2021-04-23T12:09:05Z</time>
      </trkpt>
      <trkpt lat="49.81205" lon="4.8632">
        <ele>235.8</ele>
        <time>2021-04-23T12:09:07Z</time>
      </trkpt>
      <trkpt lat="49.81207" lon="4.86307">
        <ele>233.6</ele>
        <time>2021-04-23T12:09:08Z</time>
      </trkpt>
      <trkpt lat="49.81211" lon="4.8628">
        <ele>233.8</ele>
        <time>2021-04-23T12:09:10Z</time>
      </trkpt>
      <trkpt lat="49.81213" lon="4.86252">
        <ele>236.4</ele>
        <time>2021-04-23T12:09:12Z</time>
      </trkpt>
      <trkpt lat="49.81215" lon="4.86238">
        <ele>231.6</ele>
        <time>2021-04-23T12:09:13Z</time>
      </trkpt>
      <trkpt lat="49.81215" lon="4.86211">
        <ele>241.9</ele>
        <time>2021-04-23T12:09:15Z</time>
      </trkpt>
      <trkpt lat="49.81218" lon="4.86185">
        <ele>247.8</ele>
        <time>2021-04-23T12:09:17Z</time>
      </trkpt>
      <trkpt lat="49.81219" lon="4.86172">
        <ele>253.9</ele>
        <time>2021-04-23T12:09:18Z</time>
      </trkpt>
      <trkpt lat="49.81223" lon="4.86148">
        <ele>225.7</ele>
        <time>2021-04-23T12:09:20Z</time>
      </trkpt>
      <trkpt lat="49.81226" lon="4.86125">
        <ele>228.7</ele>
        <time>2021-04-23T12:09:22Z</time>
      </trkpt>
      <trkpt lat="49.81229" lon="4.861">
        <ele>224.5</ele>
        <time>2021-04-23T12:09:24Z</time>
      </trkpt>
      <trkpt lat="49.81233" lon="4.86078">
        <ele>246.5</ele>
        <time>2021-04-23T12:09:26Z</time>
      </trkpt>
      <trkpt lat="49.81237" lon="4.86053">
        <ele>241.3</ele>
        <time>2021-04-23T12:09:28Z</time>
      </trkpt>
      <trkpt lat="49.81241" lon="4.86029">
        <ele>236.2</ele>
        <time>2021-04-23T12:09:30Z</time>
      </trkpt>
      <trkpt lat="49.81245" lon="4.86002">
        <ele>241.7</ele>
        <time>2021-04-23T12:09:32Z</time>
      </trkpt>
      <trkpt lat="49.81247" lon="4.85989">
        <ele>231.2</ele>
        <time>2021-04-23T12:09:33Z</time>
      </trkpt>
      <trkpt lat="49.8125" lon="4.85975">
        <ele>242.4</ele>
        <time>2021-04-23T12:09:34Z</time>
      </trkpt>
      <trkpt lat="49.81254" lon="4.85948">
        <ele>235.9</ele>
        <time>2021-04-23T12:09:36Z</time>
      </trkpt>
      <trkpt lat="49.81259" lon="4.85921">
        <ele>236.1</ele>
        <time>2021-04-23T12:09:38Z</time>
      </trkpt>
      <trkpt lat="49.81263" lon="4.85894">
        <ele>232.4</ele>
        <time>2021-04-23T12:09:40Z</time>
      </trkpt>
      <trkpt lat="49.81267" lon="4.85867">
        <ele>216.5</ele>
        <time>2021-04-23T12:09:42Z</time>
      </trkpt>
      <trkpt lat="49.81271" lon="4.85841">
        <ele>236.9</ele>
        <time>2021-04-23T12:09:44Z</time>
      </trkpt>
      <trkpt lat="49.81273" lon="4.85828">
        <ele>227.2</ele>
        <time>2021-04-23T12:09:45Z</time>
      </trkpt>
      <trkpt lat="49.81275" lon="4.85816">
        <ele>232.2</ele>
        <time>2021-04-23T12:09:46Z</time>
      </trkpt>
      <trkpt lat="49.81277" lon="4.85804">
        <ele>244.3</ele>
        <time>2021-04-23T12:09:47Z</time>
      </trkpt>
      <trkpt lat="49.81281" lon="4.85779">
        <ele>244.7</ele>
        <time>2021-04-23T12:09:49Z</time>
      </trkpt>
      <trkpt lat="49.81284" lon="4.85767">
        <ele>217.2</ele>
        <time>2021-04-23T12:09:50Z</time>
      </trkpt>
      <trkpt lat="49.81288" lon="4.85743">
        <ele>216.9</ele>
        <time>2021-04-23T12:09:52Z</time>
      </trkpt>
      <trkpt lat="49.81292" lon="4.85718">
        <ele>234.9</ele>
        <time>2021-04-23T12:09:54Z</time>
      </trkpt>
      <trkpt lat="49.81296" lon="4.85695">
        <ele>220.9</ele>
        <time>2021-04-23T12:09:56Z</time>
      </trkpt>
      <trkpt lat="49.81298" lon="4.85683">
        <ele>237.8</ele>
        <time>2021-04-23T12:09:57Z</time>
      </trkpt>
      <trkpt lat="49.813" lon="4.85672">
        <ele>238.8</ele>
        <time>2021-04-23T12:09:58Z</time>
      </trkpt>
      <trkpt lat="49.81305" lon="4.8565">
        <ele>217.9</ele>
        <time>2021-04-23T12:10:00Z</time>
      </trkpt>
      <trkpt lat="49.81307" lon="4.85638">
        <ele>220.5</ele>
        <time>2021-04-23T12:10:01Z</time>
      </trkpt>
      <trkpt lat="49.81311" lon="4.85615">
        <ele>237.3</ele>
        <time>2021-04-23T12:10:03Z</time>
      </trkpt>
      <trkpt lat="49.81313" lon="4.85603">
        <ele>231.1</ele>
        <time>2021-04-23T12:10:04Z</time>
      </trkpt>
      <trkpt lat="49.81318" lon="4.8558">
        <ele>219.6</ele>
        <time>2021-04-23T12:10:06Z</time>
      </trkpt>
      <trkpt lat="49.81323" lon="4.85555">
        <ele>209</ele>
        <time>2021-04-23T12:10:08Z</time>
      </trkpt>
      <trkpt lat="49.81328" lon="4.85531">
        <ele>239.3</ele>
        <time>2021-04-23T12:10:10Z</time>
      </trkpt>
      <trkpt lat="49.81331" lon="4.8552">
        <ele>223.7</ele>
        <time>2021-04-23T12:10:11Z</time>
      </trkpt>
      <trkpt lat="49.81334" lon="4.85509">
        <ele>219.4</ele>
        <time>2021-04-23T12:10:12Z</time>
      </trkpt>
      <trkpt lat="49.8134" lon="4.85486">
        <ele>227.2</ele>
        <time>2021-04-23T12:10:14Z</time>
      </trkpt>
      <trkpt lat="49.81343" lon="4.85475">
        <ele>218.7</ele>
        <time>2021-04-23T12:10:15Z</time>
      </trkpt>
      <trkpt lat="49.81348" lon="4.85453">
        <ele>212.4</ele>
        <time>2021-04-23T12:10:17Z</time>
      </trkpt>
      <trkpt lat="49.81354" lon="4.85432">
        <ele>230.5</ele>
        <time>2021-04-23T12:10:19Z</time>
      </trkpt>
      <trkpt lat="49.81356" lon="4.85422">
        <ele>198.3</ele>
        <time>2021-04-23T12:10:20Z</time>
      </trkpt>
      <trkpt lat="49.81361" lon="4.85403">
        <ele>231.8</ele>
        <time>2021-04-23T12:10:21Z</time>
      </trkpt>
      <trkpt lat="49.81366" lon="4.85384">
        <ele>221.5</ele>
        <time>2021-04-23T12:10:23Z</time>
      </trkpt>
      <trkpt lat="49.81372" lon="4.85365">
        <ele>222.7</ele>
        <time>2021-04-23T12:10:25Z</time>
      </trkpt>
      <trkpt lat="49.8138" lon="4.85348">
        <ele>228.5</ele>
        <time>2021-04-23T12:10:27Z</time>
      </trkpt>
      <trkpt lat="49.81389" lon="4.85331">
        <ele>214.9</ele>
        <time>2021-04-23T12:10:30Z</time>
      </trkpt>
      <trkpt lat="49.81399" lon="4.85318">
        <ele>207.3</ele>
        <time>2021-04-23T12:10:31Z</time>
      </trkpt>
      <trkpt lat="49.81405" lon="4.8531">
        <ele>210.4</ele>
        <time>2021-04-23T12:10:33Z</time>
      </trkpt>
      <trkpt lat="49.81416" lon="4.85295">
        <ele>210.5</ele>
        <time>2021-04-23T12:10:35Z</time>
      </trkpt>
      <trkpt lat="49.81427" lon="4.8528">
        <ele>214.6</ele>
        <time>2021-04-23T12:10:37Z</time>
      </trkpt>
      <trkpt lat="49.81438" lon="4.85265">
        <ele>224.4</ele>
        <time>2021-04-23T12:10:39Z</time>
      </trkpt>
      <trkpt lat="49.81443" lon="4.85258">
        <ele>223.6</ele>
        <time>2021-04-23T12:10:40Z</time>
      </trkpt>
      <trkpt lat="49.81448" lon="4.85251">
        <ele>203.2</ele>
        <time>2021-04-23T12:10:41Z</time>
      </trkpt>
      <trkpt lat="49.81456" lon="4.85237">
        <ele>221.8</ele>
        <time>2021-04-23T12:10:43Z</time>
      </trkpt>
      <trkpt lat="49.81461" lon="4.85229">
        <ele>202.8</ele>
        <time>2021-04-23T12:10:44Z</time>
      </trkpt>
      <trkpt lat="49.8147" lon="4.85215">
        <ele>219.9</ele>
        <time>2021-04-23T12:10:46Z</time>
      </trkpt>
      <trkpt lat="49.81475" lon="4.85208">
        <ele>223.3</ele>
        <time>2021-04-23T12:10:47Z</time>
      </trkpt>
      <trkpt lat="49.81479" lon="4.85201">
        <ele>231.8</ele>
        <time>2021-04-23T12:10:48Z</time>
      </trkpt>
      <trkpt lat="49.81483" lon="4.85194">
        <ele>225.7</ele>
        <time>2021-04-23T12:10:49Z</time>
      </trkpt>
      <trkpt lat="49.8149" lon="4.85179">
        <ele>210.8</ele>
        <time>2021-04-23T12:10:51Z</time>
      </trkpt>
      <trkpt lat="49.81494" lon="4.8517">
        <ele>209.1</ele>
        <time>2021-04-23T12:10:52Z</time>
      </trkpt>
      <trkpt lat="49.81498" lon="4.85162">
        <ele>192.5</ele>
        <time>2021-04-23T12:10:53Z</time>
      </trkpt>
      <trkpt lat="49.81502" lon="4.85154">
        <ele>220.4</ele>
        <time>2021-04-23T12:10:54Z</time>
      </trkpt>
      <trkpt lat="49.81509" lon="4.85138">
        <ele>214.5</ele>
        <time>2021-04-23T12:10:56Z</time>
      </trkpt>
      <trkpt lat="49.81517" lon="4.85122">
        <ele>213.5</ele>
        <time>2021-04-23T12:10:58Z</time>
      </trkpt>
      <trkpt lat="49.81522" lon="4.85113">
        <ele>226.6</ele>
        <time>2021-04-23T12:10:59Z</time>
      </trkpt>
      <trkpt lat="49.8153" lon="4.85093">
        <ele>210.5</ele>
        <time>2021-04-23T12:11:01Z</time>
      </trkpt>
      <trkpt lat="49.81537" lon="4.85075">
        <ele>212.1</ele>
        <time>2021-04-23T12:11:03Z</time>
      </trkpt>
      <trkpt lat="49.81543" lon="4.85056">
        <ele>204.9</ele>
        <time>2021-04-23T12:11:05Z</time>
      </trkpt>
      <trkpt lat="49.81547" lon="4.85037">
        <ele>215</ele>
        <time>2021-04-23T12:11:07Z</time>
      </trkpt>
      <trkpt lat="49.81549" lon="4.85028">
        <ele>209.7</ele>
        <time>2021-04-23T12:11:08Z</time>
      </trkpt>
      <trkpt lat="49.81553" lon="4.85012">
        <ele>210.6</ele>
        <time>2021-04-23T12:11:10Z</time>
      </trkpt>
      <trkpt lat="49.81557" lon="4.84996">
        <ele>214.2</ele>
        <time>2021-04-23T12:11:12Z</time>
      </trkpt>
      <trkpt lat="49.81559" lon="4.84988">
        <ele>212.3</ele>
        <time>2021-04-23T12:11:13Z</time>
      </trkpt>
      <trkpt lat="49.81563" lon="4.84973">
        <ele>212.4</ele>
        <time>2021-04-23T12:11:15Z</time>
      </trkpt>
      <trkpt lat="49.81566" lon="4.84956">
        <ele>220.8</ele>
        <time>2021-04-23T12:11:17Z</time>
      </trkpt>
      <trkpt lat="49.81567" lon="4.84948">
        <ele>205.3</ele>
        <time>2021-04-23T12:11:18Z</time>
      </trkpt>
      <trkpt lat="49.8157" lon="4.84932">
        <ele>220</ele>
        <time>2021-04-23T12:11:20Z</time>
      </trkpt>
      <trkpt lat="49.81572" lon="4.84915">
        <ele>211</ele>
        <time>2021-04-23T12:11:22Z</time>
      </trkpt>
      <trkpt lat="49.81574" lon="4.84907">
        <ele>208.6</ele>
        <time>2021-04-23T12:11:23Z</time>
      </trkpt>
      <trkpt lat="49.81576" lon="4.84889">
        <ele>204.7</ele>
        <time>2021-04-23T12:11:25Z</time>
      </trkpt>
      <trkpt lat="49.81577" lon="4.84871">
        <ele>211.5</ele>
        <time>2021-04-23T12:11:27Z</time>
      </trkpt>
      <trkpt lat="49.81578" lon="4.84852">
        <ele>215.2</ele>
        <time>2021-04-23T12:11:29Z</time>
      </trkpt>
      <trkpt lat="49.81578" lon="4.84843">
        <ele>213.2</ele>
        <time>2021-04-23T12:11:30Z</time>
      </trkpt>
      <trkpt lat="49.81578" lon="4.84827">
        <ele>212.5</ele>
        <time>2021-04-23T12:11:32Z</time>
      </trkpt>
      <trkpt lat="49.81578" lon="4.84809">
        <ele>216.8</ele>
        <time>2021-04-23T12:11:34Z</time>
      </trkpt>
      <trkpt lat="49.81577" lon="4.848">
        <ele>205.8</ele>
        <time>2021-04-23T12:11:35Z</time>
      </trkpt>
      <trkpt lat="49.81575" lon="4.84781">
        <ele>203</ele>
        <time>2021-04-23T12:11:37Z</time>
      </trkpt>
      <trkpt lat="49.81574" lon="4.84761">
        <ele>214.7</ele>
        <time>2021-04-23T12:11:39Z</time>
      </trkpt>
      <trkpt lat="49.81572" lon="4.84742">
        <ele>216.9</ele>
        <time>2021-04-23T12:11:41Z</time>
      </trkpt>
      <trkpt lat="49.81572" lon="4.84732">
        <ele>219.9</ele>
        <time>2021-04-23T12:11:42Z</time>
      </trkpt>
      <trkpt lat="49.8157" lon="4.84712">
        <ele>181</ele>
        <time>2021-04-23T12:11:44Z</time>
      </trkpt>
      <trkpt lat="49.8157" lon="4.84691">
        <ele>207.7</ele>
        <time>2021-04-23T12:11:46Z</time>
      </trkpt>
      <trkpt lat="49.81573" lon="4.8467">
        <ele>186.8</ele>
        <time>2021-04-23T12:11:48Z</time>
      </trkpt>
      <trkpt lat="49.81575" lon="4.84659">
        <ele>199.9</ele>
        <time>2021-04-23T12:11:49Z</time>
      </trkpt>
      <trkpt lat="49.81578" lon="4.84638">
        <ele>197.9</ele>
        <time>2021-04-23T12:11:51Z</time>
      </trkpt>
      <trkpt lat="49.8158" lon="4.84616">
        <ele>190.1</ele>
        <time>2021-04-23T12:11:53Z</time>
      </trkpt>
      <trkpt lat="49.81583" lon="4.84594">
        <ele>201.8</ele>
        <time>2021-04-23T12:11:55Z</time>
      </trkpt>
      <trkpt lat="49.81584" lon="4.84582">
        <ele>229.5</ele>
        <time>2021-04-23T12:11:56Z</time>
      </trkpt>
      <trkpt lat="49.81586" lon="4.84562">
        <ele>206.1</ele>
        <time>2021-04-23T12:11:58Z</time>
      </trkpt>
      <trkpt lat="49.81588" lon="4.84552">
        <ele>200.7</ele>
        <time>2021-04-23T12:11:59Z</time>
      </trkpt>
      <trkpt lat="49.8159" lon="4.84542">
        <ele>205</ele>
        <time>2021-04-23T12:12:00Z</time>
      </trkpt>
      <trkpt lat="49.81592" lon="4.84532">
        <ele>198.4</ele>
        <time>2021-04-23T12:12:01Z</time>
      </trkpt>
      <trkpt lat="49.81594" lon="4.84521">
        <ele>197.8</ele>
        <time>2021-04-23T12:12:02Z</time>
      </trkpt>
      <trkpt lat="49.81598" lon="4.845">
        <ele>208.6</ele>
        <time>2021-04-23T12:12:04Z</time>
      </trkpt>
      <trkpt lat="49.81598" lon="4.84488">
        <ele>198.3</ele>
        <time>2021-04-23T12:12:05Z</time>
      </trkpt>
      <trkpt lat="49.816" lon="4.84467">
        <ele>194.4</ele>
        <time>2021-04-23T12:12:07Z</time>
      </trkpt>
      <trkpt lat="49.81601" lon="4.84456">
        <ele>198.3</ele>
        <time>2021-04-23T12:12:08Z</time>
      </trkpt>
      <trkpt lat="49.81602" lon="4.84446">
        <ele>219.3</ele>
        <time>2021-04-23T12:12:09Z</time>
      </trkpt>
      <trkpt lat="49.81603" lon="4.84435">
        <ele>199.9</ele>
        <time>2021-04-23T12:12:10Z</time>
      </trkpt>
      <trkpt lat="49.81604" lon="4.84425">
        <ele>194.1</ele>
        <time>2021-04-23T12:12:11Z</time>
      </trkpt>
      <trkpt lat="49.81606" lon="4.84406">
        <ele>204.4</ele>
        <time>2021-04-23T12:12:13Z</time>
      </trkpt>
      <trkpt lat="49.81609" lon="4.84386">
        <ele>202.5</ele>
        <time>2021-04-23T12:12:14Z</time>
      </trkpt>
      <trkpt lat="49.81611" lon="4.84363">
        <ele>190.8</ele>
        <time>2021-04-23T12:12:17Z</time>
      </trkpt>
      <trkpt lat="49.81613" lon="4.84343">
        <ele>186.2</ele>
        <time>2021-04-23T12:12:18Z</time>
      </trkpt>
      <trkpt lat="49.81615" lon="4.84332">
        <ele>204.6</ele>
        <time>2021-04-23T12:12:19Z</time>
      </trkpt>
      <trkpt lat="49.81617" lon="4.84311">
        <ele>196.8</ele>
        <time>2021-04-23T12:12:21Z</time>
      </trkpt>
      <trkpt lat="49.81619" lon="4.84291">
        <ele>224.4</ele>
        <time>2021-04-23T12:12:23Z</time>
      </trkpt>
      <trkpt lat="49.8162" lon="4.84281">
        <ele>223.7</ele>
        <time>2021-04-23T12:12:24Z</time>
      </trkpt>
      <trkpt lat="49.81621" lon="4.84271">
        <ele>196.3</ele>
        <time>2021-04-23T12:12:25Z</time>
      </trkpt>
      <trkpt lat="49.81623" lon="4.84252">
        <ele>192.4</ele>
        <time>2021-04-23T12:12:27Z</time>
      </trkpt>
      <trkpt lat="49.81626" lon="4.84232">
        <ele>198.2</ele>
        <time>2021-04-23T12:12:29Z</time>
      </trkpt>
      <trkpt lat="49.81628" lon="4.84211">
        <ele>199</ele>
        <time>2021-04-23T12:12:32Z</time>
      </trkpt>
      <trkpt lat="49.81631" lon="4.84193">
        <ele>215.8</ele>
        <time>2021-04-23T12:12:34Z</time>
      </trkpt>
      <trkpt lat="49.81633" lon="4.84174">
        <ele>201.4</ele>
        <time>2021-04-23T12:12:36Z</time>
      </trkpt>
      <trkpt lat="49.81635" lon="4.84155">
        <ele>232.6</ele>
        <time>2021-04-23T12:12:38Z</time>
      </trkpt>
      <trkpt lat="49.81637" lon="4.84136">
        <ele>191.1</ele>
        <time>2021-04-23T12:12:40Z</time>
      </trkpt>
      <trkpt lat="49.81638" lon="4.84127">
        <ele>191.7</ele>
        <time>2021-04-23T12:12:41Z</time>
      </trkpt>
      <trkpt lat="49.8164" lon="4.84109">
        <ele>196.2</ele>
        <time>2021-04-23T12:12:43Z</time>
      </trkpt>
      <trkpt lat="49.81641" lon="4.84099">
        <ele>192.6</ele>
        <time>2021-04-23T12:12:44Z</time>
      </trkpt>
      <trkpt lat="49.81643" lon="4.8408">
        <ele>205</ele>
        <time>2021-04-23T12:12:46Z</time>
      </trkpt>
      <trkpt lat="49.81646" lon="4.84061">
        <ele>210.1</ele>
        <time>2021-04-23T12:12:48Z</time>
      </trkpt>
      <trkpt lat="49.81648" lon="4.84043">
        <ele>199.2</ele>
        <time>2021-04-23T12:12:50Z</time>
      </trkpt>
      <trkpt lat="49.8165" lon="4.84026">
        <ele>217.8</ele>
        <time>2021-04-23T12:12:52Z</time>
      </trkpt>
      <trkpt lat="49.81653" lon="4.84007">
        <ele>189.8</ele>
        <time>2021-04-23T12:12:54Z</time>
      </trkpt>
      <trkpt lat="49.81654" lon="4.8399">
        <ele>214</ele>
        <time>2021-04-23T12:12:56Z</time>
      </trkpt>
      <trkpt lat="49.81655" lon="4.83981">
        <ele>197.5</ele>
        <time>2021-04-23T12:12:57Z</time>
      </trkpt>
      <trkpt lat="49.81657" lon="4.83964">
        <ele>182.5</ele>
        <time>2021-04-23T12:12:59Z</time>
      </trkpt>
      <trkpt lat="49.81658" lon="4.83955">
        <ele>222.8</ele>
        <time>2021-04-23T12:13:00Z</time>
      </trkpt>
      <trkpt lat="49.81659" lon="4.83946">
        <ele>183</ele>
        <time>2021-04-23T12:13:01Z</time>
      </trkpt>
      <trkpt lat="49.8166" lon="4.83937">
        <ele>204</ele>
        <time>2021-04-23T12:13:02Z</time>
      </trkpt>
      <trkpt lat="49.81662" lon="4.83918">
        <ele>198.9</ele>
        <time>2021-04-23T12:13:04Z</time>
      </trkpt>
      <trkpt lat="49.81662" lon="4.83909">
        <ele>209.6</ele>
        <time>2021-04-23T12:13:05Z</time>
      </trkpt>
      <trkpt lat="49.81663" lon="4.83901">
        <ele>199.6</ele>
        <time>2021-04-23T12:13:06Z</time>
      </trkpt>
      <trkpt lat="49.81664" lon="4.83892">
        <ele>215.7</ele>
        <time>2021-04-23T12:13:07Z</time>
      </trkpt>
      <trkpt lat="49.81667" lon="4.83874">
        <ele>190.2</ele>
        <time>2021-04-23T12:13:09Z</time>
      </trkpt>
      <trkpt lat="49.8167" lon="4.83857">
        <ele>191.1</ele>
        <time>2021-04-23T12:13:11Z</time>
      </trkpt>
      <trkpt lat="49.81671" lon="4.83849">
        <ele>190.5</ele>
        <time>2021-04-23T12:13:12Z</time>
      </trkpt>
      <trkpt lat="49.81674" lon="4.83832">
        <ele>194.4</ele>
        <time>2021-04-23T12:13:14Z</time>
      </trkpt>
      <trkpt lat="49.81676" lon="4.83824">
        <ele>194.2</ele>
        <time>2021-04-23T12:13:15Z</time>
      </trkpt>
      <trkpt lat="49.81678" lon="4.83816">
        <ele>208.2</ele>
        <time>2021-04-23T12:13:16Z</time>
      </trkpt>
      <trkpt lat="49.81682" lon="4.83801">
        <ele>197.7</ele>
        <time>2021-04-23T12:13:18Z</time>
      </trkpt>
      <trkpt lat="49.81684" lon="4.83794">
        <ele>196.8</ele>
        <time>2021-04-23T12:13:19Z</time>
      </trkpt>
      <trkpt lat="49.81688" lon="4.83779">
        <ele>203</ele>
        <time>2021-04-23T12:13:21Z</time>
      </trkpt>
      <trkpt lat="49.81693" lon="4.83765">
        <ele>212.4</ele>
        <time>2021-04-23T12:13:22Z</time>
      </trkpt>
      <trkpt lat="49.81697" lon="4.83749">
        <ele>185.1</ele>
        <time>2021-04-23T12:13:25Z</time>
      </trkpt>
      <trkpt lat="49.81701" lon="4.83735">
        <ele>188</ele>
        <time>2021-04-23T12:13:26Z</time>
      </trkpt>
      <trkpt lat="49.81706" lon="4.83721">
        <ele>180.4</ele>
        <time>2021-04-23T12:13:28Z</time>
      </trkpt>
      <trkpt lat="49.81708" lon="4.83713">
        <ele>206.8</ele>
        <time>2021-04-23T12:13:29Z</time>
      </trkpt>
      <trkpt lat="49.81711" lon="4.83706">
        <ele>198.4</ele>
        <time>2021-04-23T12:13:30Z</time>
      </trkpt>
      <trkpt lat="49.81716" lon="4.83691">
        <ele>190.4</ele>
        <time>2021-04-23T12:13:32Z</time>
      </trkpt>
      <trkpt lat="49.81722" lon="4.83677">
        <ele>183</ele>
        <time>2021-04-23T12:13:34Z</time>
      </trkpt>
      <trkpt lat="49.81728" lon="4.83664">
        <ele>205.3</ele>
        <time>2021-04-23T12:13:36Z</time>
      </trkpt>
      <trkpt lat="49.81732" lon="4.83657">
        <ele>197.3</ele>
        <time>2021-04-23T12:13:38Z</time>
      </trkpt>
      <trkpt lat="49.81739" lon="4.83645">
        <ele>192.9</ele>
        <time>2021-04-23T12:13:40Z</time>
      </trkpt>
      <trkpt lat="49.81745" lon="4.83635">
        <ele>201.7</ele>
        <time>2021-04-23T12:13:42Z</time>
      </trkpt>
      <trkpt lat="49.81751" lon="4.83626">
        <ele>179.7</ele>
        <time>2021-04-23T12:13:44Z</time>
      </trkpt>
      <trkpt lat="49.81757" lon="4.83618">
        <ele>197.2</ele>
        <time>2021-04-23T12:13:46Z</time>
      </trkpt>
      <trkpt lat="49.81763" lon="4.8361">
        <ele>205.9</ele>
        <time>2021-04-23T12:13:48Z</time>
      </trkpt>
      <trkpt lat="49.81767" lon="4.83601">
        <ele>188.6</ele>
        <time>2021-04-23T12:13:50Z</time>
      </trkpt>
      <trkpt lat="49.81769" lon="4.83595">
        <ele>182.3</ele>
        <time>2021-04-23T12:13:52Z</time>
      </trkpt>
      <trkpt lat="49.81776" lon="4.83588">
        <ele>189.4</ele>
        <time>2021-04-23T12:13:53Z</time>
      </trkpt>
      <trkpt lat="49.81785" lon="4.83577">
        <ele>209.1</ele>
        <time>2021-04-23T12:13:55Z</time>
      </trkpt>
      <trkpt lat="49.8179" lon="4.83571">
        <ele>179.3</ele>
        <time>2021-04-23T12:13:57Z</time>
      </trkpt>
      <trkpt lat="49.81795" lon="4.83566">
        <ele>212.6</ele>
        <time>2021-04-23T12:13:58Z</time>
      </trkpt>
      <trkpt lat="49.81802" lon="4.83556">
        <ele>195.8</ele>
        <time>2021-04-23T12:14:00Z</time>
      </trkpt>
      <trkpt lat="49.81806" lon="4.83551">
        <ele>180</ele>
        <time>2021-04-23T12:14:01Z</time>
      </trkpt>
      <trkpt lat="49.81813" lon="4.83539">
        <ele>197.9</ele>
        <time>2021-04-23T12:14:03Z</time>
      </trkpt>
      <trkpt lat="49.81816" lon="4.83532">
        <ele>190.6</ele>
        <time>2021-04-23T12:14:04Z</time>
      </trkpt>
      <trkpt lat="49.81819" lon="4.83525">
        <ele>201.4</ele>
        <time>2021-04-23T12:14:06Z</time>
      </trkpt>
      <trkpt lat="49.81822" lon="4.83519">
        <ele>187.1</ele>
        <time>2021-04-23T12:14:07Z</time>
      </trkpt>
      <trkpt lat="49.81825" lon="4.83512">
        <ele>214.1</ele>
        <time>2021-04-23T12:14:08Z</time>
      </trkpt>
      <trkpt lat="49.81829" lon="4.83504">
        <ele>189.7</ele>
        <time>2021-04-23T12:14:10Z</time>
      </trkpt>
      <trkpt lat="49.81832" lon="4.83494">
        <ele>214.1</ele>
        <time>2021-04-23T12:14:12Z</time>
      </trkpt>
      <trkpt lat="49.81838" lon="4.83482">
        <ele>198.2</ele>
        <time>2021-04-23T12:14:14Z</time>
      </trkpt>
      <trkpt lat="49.81844" lon="4.83469">
        <ele>191.1</ele>
        <time>2021-04-23T12:14:17Z</time>
      </trkpt>
      <trkpt lat="49.81846" lon="4.83462">
        <ele>197.8</ele>
        <time>2021-04-23T12:14:18Z</time>
      </trkpt>
      <trkpt lat="49.8185" lon="4.83454">
        <ele>178.4</ele>
        <time>2021-04-23T12:14:19Z</time>
      </trkpt>
      <trkpt lat="49.81853" lon="4.83448">
        <ele>200.2</ele>
        <time>2021-04-23T12:14:21Z</time>
      </trkpt>
      <trkpt lat="49.81857" lon="4.83442">
        <ele>212.9</ele>
        <time>2021-04-23T12:14:22Z</time>
      </trkpt>
      <trkpt lat="49.8186" lon="4.83435">
        <ele>196.6</ele>
        <time>2021-04-23T12:14:23Z</time>
      </trkpt>
      <trkpt lat="49.81867" lon="4.83424">
        <ele>191.3</ele>
        <time>2021-04-23T12:14:26Z</time>
      </trkpt>
      <trkpt lat="49.81873" lon="4.83415">
        <ele>191</ele>
        <time>2021-04-23T12:14:28Z</time>
      </trkpt>
      <trkpt lat="49.8188" lon="4.83408">
        <ele>191.4</ele>
        <time>2021-04-23T12:14:31Z</time>
      </trkpt>
      <trkpt lat="49.81884" lon="4.83402">
        <ele>191.4</ele>
        <time>2021-04-23T12:14:33Z</time>
      </trkpt>
      <trkpt lat="49.8189" lon="4.83395">
        <ele>189.9</ele>
        <time>2021-04-23T12:14:35Z</time>
      </trkpt>
      <trkpt lat="49.81894" lon="4.83389">
        <ele>197.3</ele>
        <time>2021-04-23T12:14:37Z</time>
      </trkpt>
      <trkpt lat="49.81898" lon="4.83384">
        <ele>185.9</ele>
        <time>2021-04-23T12:14:38Z</time>
      </trkpt>
      <trkpt lat="49.81906" lon="4.83373">
        <ele>193.1</ele>
        <time>2021-04-23T12:14:42Z</time>
      </trkpt>
      <trkpt lat="49.8191" lon="4.83366">
        <ele>178.9</ele>
        <time>2021-04-23T12:14:44Z</time>
      </trkpt>
      <trkpt lat="49.81915" lon="4.8336">
        <ele>203.9</ele>
        <time>2021-04-23T12:14:46Z</time>
      </trkpt>
      <trkpt lat="49.81919" lon="4.83354">
        <ele>195.2</ele>
        <time>2021-04-23T12:14:47Z</time>
      </trkpt>
      <trkpt lat="49.81923" lon="4.83349">
        <ele>195.3</ele>
        <time>2021-04-23T12:14:49Z</time>
      </trkpt>
      <trkpt lat="49.81926" lon="4.83345">
        <ele>196</ele>
        <time>2021-04-23T12:14:51Z</time>
      </trkpt>
      <trkpt lat="49.81932" lon="4.83338">
        <ele>194.4</ele>
        <time>2021-04-23T12:14:53Z</time>
      </trkpt>
      <trkpt lat="49.81936" lon="4.83333">
        <ele>188.5</ele>
        <time>2021-04-23T12:14:55Z</time>
      </trkpt>
      <trkpt lat="49.81941" lon="4.83327">
        <ele>179.8</ele>
        <time>2021-04-23T12:14:57Z</time>
      </trkpt>
      <trkpt lat="49.81947" lon="4.83325">
        <ele>199.1</ele>
        <time>2021-04-23T12:15:01Z</time>
      </trkpt>
      <trkpt lat="49.8195" lon="4.83315">
        <ele>194.7</ele>
        <time>2021-04-23T12:16:06Z</time>
      </trkpt>
      <trkpt lat="49.81956" lon="4.83306">
        <ele>183</ele>
        <time>2021-04-23T12:16:08Z</time>
      </trkpt>
      <trkpt lat="49.81959" lon="4.83296">
        <ele>192</ele>
        <time>2021-04-23T12:16:10Z</time>
      </trkpt>
      <trkpt lat="49.81967" lon="4.83289">
        <ele>191.1</ele>
        <time>2021-04-23T12:16:12Z</time>
      </trkpt>
      <trkpt lat="49.81973" lon="4.83283">
        <ele>197.4</ele>
        <time>2021-04-23T12:16:13Z</time>
      </trkpt>
      <trkpt lat="49.81977" lon="4.8328">
        <ele>205.2</ele>
        <time>2021-04-23T12:16:15Z</time>
      </trkpt>
      <trkpt lat="49.81983" lon="4.83273">
        <ele>218.3</ele>
        <time>2021-04-23T12:16:17Z</time>
      </trkpt>
      <trkpt lat="49.81986" lon="4.83267">
        <ele>202.2</ele>
        <time>2021-04-23T12:16:19Z</time>
      </trkpt>
      <trkpt lat="49.81993" lon="4.83255">
        <ele>198.8</ele>
        <time>2021-04-23T12:16:21Z</time>
      </trkpt>
      <trkpt lat="49.81996" lon="4.83248">
        <ele>199.2</ele>
        <time>2021-04-23T12:16:23Z</time>
      </trkpt>
      <trkpt lat="49.82001" lon="4.83238">
        <ele>184.4</ele>
        <time>2021-04-23T12:16:25Z</time>
      </trkpt>
      <trkpt lat="49.82006" lon="4.8323">
        <ele>185.5</ele>
        <time>2021-04-23T12:16:27Z</time>
      </trkpt>
      <trkpt lat="49.82009" lon="4.83221">
        <ele>214.4</ele>
        <time>2021-04-23T12:16:29Z</time>
      </trkpt>
      <trkpt lat="49.82012" lon="4.8321">
        <ele>201.5</ele>
        <time>2021-04-23T12:16:31Z</time>
      </trkpt>
      <trkpt lat="49.82015" lon="4.832">
        <ele>205.4</ele>
        <time>2021-04-23T12:16:33Z</time>
      </trkpt>
      <trkpt lat="49.82019" lon="4.83191">
        <ele>193.7</ele>
        <time>2021-04-23T12:16:35Z</time>
      </trkpt>
      <trkpt lat="49.82022" lon="4.83181">
        <ele>209.4</ele>
        <time>2021-04-23T12:16:36Z</time>
      </trkpt>
      <trkpt lat="49.82025" lon="4.83175">
        <ele>213</ele>
        <time>2021-04-23T12:16:38Z</time>
      </trkpt>
      <trkpt lat="49.82029" lon="4.83163">
        <ele>189.6</ele>
        <time>2021-04-23T12:16:40Z</time>
      </trkpt>
      <trkpt lat="49.82031" lon="4.83156">
        <ele>192.6</ele>
        <time>2021-04-23T12:16:41Z</time>
      </trkpt>
      <trkpt lat="49.82033" lon="4.83149">
        <ele>195.6</ele>
        <time>2021-04-23T12:16:42Z</time>
      </trkpt>
      <trkpt lat="49.82036" lon="4.83141">
        <ele>200.3</ele>
        <time>2021-04-23T12:16:44Z</time>
      </trkpt>
      <trkpt lat="49.82043" lon="4.8313">
        <ele>191</ele>
        <time>2021-04-23T12:16:46Z</time>
      </trkpt>
      <trkpt lat="49.8205" lon="4.83122">
        <ele>205.6</ele>
        <time>2021-04-23T12:16:48Z</time>
      </trkpt>
      <trkpt lat="49.82056" lon="4.83115">
        <ele>189.4</ele>
        <time>2021-04-23T12:16:51Z</time>
      </trkpt>
      <trkpt lat="49.82062" lon="4.83111">
        <ele>199</ele>
        <time>2021-04-23T12:16:52Z</time>
      </trkpt>
      <trkpt lat="49.82067" lon="4.83109">
        <ele>197.2</ele>
        <time>2021-04-23T12:16:53Z</time>
      </trkpt>
      <trkpt lat="49.82072" lon="4.83107">
        <ele>185.9</ele>
        <time>2021-04-23T12:16:55Z</time>
      </trkpt>
      <trkpt lat="49.82079" lon="4.83103">
        <ele>209.6</ele>
        <time>2021-04-23T12:16:57Z</time>
      </trkpt>
      <trkpt lat="49.82086" lon="4.83096">
        <ele>168.9</ele>
        <time>2021-04-23T12:16:59Z</time>
      </trkpt>
      <trkpt lat="49.8209" lon="4.83092">
        <ele>181</ele>
        <time>2021-04-23T12:17:00Z</time>
      </trkpt>
      <trkpt lat="49.82096" lon="4.83082">
        <ele>187</ele>
        <time>2021-04-23T12:17:03Z</time>
      </trkpt>
      <trkpt lat="49.821" lon="4.83066">
        <ele>189.3</ele>
        <time>2021-04-23T12:17:05Z</time>
      </trkpt>
      <trkpt lat="49.82101" lon="4.83058">
        <ele>196.4</ele>
        <time>2021-04-23T12:17:07Z</time>
      </trkpt>
      <trkpt lat="49.82104" lon="4.83048">
        <ele>191.7</ele>
        <time>2021-04-23T12:17:09Z</time>
      </trkpt>
      <trkpt lat="49.82108" lon="4.83043">
        <ele>186.7</ele>
        <time>2021-04-23T12:17:10Z</time>
      </trkpt>
      <trkpt lat="49.82117" lon="4.83049">
        <ele>172.8</ele>
        <time>2021-04-23T12:17:13Z</time>
      </trkpt>
      <trkpt lat="49.82123" lon="4.83057">
        <ele>180.3</ele>
        <time>2021-04-23T12:17:14Z</time>
      </trkpt>
      <trkpt lat="49.82127" lon="4.83064">
        <ele>198.6</ele>
        <time>2021-04-23T12:17:16Z</time>
      </trkpt>
      <trkpt lat="49.82135" lon="4.83072">
        <ele>213.1</ele>
        <time>2021-04-23T12:17:18Z</time>
      </trkpt>
      <trkpt lat="49.8214" lon="4.83077">
        <ele>195</ele>
        <time>2021-04-23T12:17:19Z</time>
      </trkpt>
      <trkpt lat="49.82146" lon="4.83082">
        <ele>191</ele>
        <time>2021-04-23T12:17:21Z</time>
      </trkpt>
      <trkpt lat="49.82154" lon="4.83088">
        <ele>211.3</ele>
        <time>2021-04-23T12:17:23Z</time>
      </trkpt>
      <trkpt lat="49.8216" lon="4.83091">
        <ele>200</ele>
        <time>2021-04-23T12:17:24Z</time>
      </trkpt>
      <trkpt lat="49.82165" lon="4.83093">
        <ele>194.9</ele>
        <time>2021-04-23T12:17:26Z</time>
      </trkpt>
      <trkpt lat="49.8217" lon="4.83096">
        <ele>194</ele>
        <time>2021-04-23T12:17:27Z</time>
      </trkpt>
      <trkpt lat="49.82175" lon="4.83099">
        <ele>200.2</ele>
        <time>2021-04-23T12:17:29Z</time>
      </trkpt>
      <trkpt lat="49.82183" lon="4.83101">
        <ele>190.6</ele>
        <time>2021-04-23T12:17:31Z</time>
      </trkpt>
      <trkpt lat="49.82192" lon="4.83104">
        <ele>183.5</ele>
        <time>2021-04-23T12:17:34Z</time>
      </trkpt>
      <trkpt lat="49.82197" lon="4.83104">
        <ele>199.7</ele>
        <time>2021-04-23T12:17:35Z</time>
      </trkpt>
      <trkpt lat="49.82201" lon="4.83105">
        <ele>189.9</ele>
        <time>2021-04-23T12:17:37Z</time>
      </trkpt>
      <trkpt lat="49.82207" lon="4.83108">
        <ele>196.1</ele>
        <time>2021-04-23T12:17:38Z</time>
      </trkpt>
      <trkpt lat="49.82214" lon="4.83111">
        <ele>194.5</ele>
        <time>2021-04-23T12:17:41Z</time>
      </trkpt>
      <trkpt lat="49.82223" lon="4.83116">
        <ele>188.6</ele>
        <time>2021-04-23T12:17:44Z</time>
      </trkpt>
      <trkpt lat="49.8223" lon="4.83118">
        <ele>175.7</ele>
        <time>2021-04-23T12:17:46Z</time>
      </trkpt>
      <trkpt lat="49.82238" lon="4.83121">
        <ele>181</ele>
        <time>2021-04-23T12:17:48Z</time>
      </trkpt>
      <trkpt lat="49.82243" lon="4.83124">
        <ele>202.1</ele>
        <time>2021-04-23T12:17:50Z</time>
      </trkpt>
      <trkpt lat="49.8225" lon="4.83128">
        <ele>205</ele>
        <time>2021-04-23T12:17:52Z</time>
      </trkpt>
      <trkpt lat="49.82256" lon="4.83132">
        <ele>206.8</ele>
        <time>2021-04-23T12:17:53Z</time>
      </trkpt>
      <trkpt lat="49.82266" lon="4.83139">
        <ele>194.4</ele>
        <time>2021-04-23T12:17:57Z</time>
      </trkpt>
      <trkpt lat="49.82274" lon="4.83142">
        <ele>200.2</ele>
        <time>2021-04-23T12:17:59Z</time>
      </trkpt>
      <trkpt lat="49.82279" lon="4.83144">
        <ele>199.2</ele>
        <time>2021-04-23T12:18:01Z</time>
      </trkpt>
      <trkpt lat="49.82285" lon="4.83144">
        <ele>197.7</ele>
        <time>2021-04-23T12:18:03Z</time>
      </trkpt>
      <trkpt lat="49.82292" lon="4.83144">
        <ele>190.7</ele>
        <time>2021-04-23T12:18:06Z</time>
      </trkpt>
      <trkpt lat="49.82298" lon="4.83145">
        <ele>184.2</ele>
        <time>2021-04-23T12:18:08Z</time>
      </trkpt>
      <trkpt lat="49.82307" lon="4.83147">
        <ele>204.3</ele>
        <time>2021-04-23T12:18:11Z</time>
      </trkpt>
      <trkpt lat="49.82313" lon="4.83148">
        <ele>174.3</ele>
        <time>2021-04-23T12:18:12Z</time>
      </trkpt>
      <trkpt lat="49.82319" lon="4.8315">
        <ele>194.4</ele>
        <time>2021-04-23T12:18:15Z</time>
      </trkpt>
      <trkpt lat="49.82325" lon="4.83152">
        <ele>208.4</ele>
        <time>2021-04-23T12:18:17Z</time>
      </trkpt>
      <trkpt lat="49.82332" lon="4.83153">
        <ele>203.1</ele>
        <time>2021-04-23T12:18:20Z</time>
      </trkpt>
      <trkpt lat="49.82337" lon="4.83154">
        <ele>181.7</ele>
        <time>2021-04-23T12:18:21Z</time>
      </trkpt>
      <trkpt lat="49.82345" lon="4.83156">
        <ele>186.7</ele>
        <time>2021-04-23T12:18:24Z</time>
      </trkpt>
      <trkpt lat="49.82353" lon="4.83155">
        <ele>194.5</ele>
        <time>2021-04-23T12:18:27Z</time>
      </trkpt>
      <trkpt lat="49.82362" lon="4.83155">
        <ele>197.1</ele>
        <time>2021-04-23T12:18:29Z</time>
      </trkpt>
      <trkpt lat="49.82369" lon="4.83153">
        <ele>197</ele>
        <time>2021-04-23T12:18:32Z</time>
      </trkpt>
      <trkpt lat="49.82376" lon="4.83151">
        <ele>205.8</ele>
        <time>2021-04-23T12:18:34Z</time>
      </trkpt>
      <trkpt lat="49.82381" lon="4.8315">
        <ele>192.4</ele>
        <time>2021-04-23T12:18:35Z</time>
      </trkpt>
      <trkpt lat="49.82391" lon="4.83149">
        <ele>206.6</ele>
        <time>2021-04-23T12:18:38Z</time>
      </trkpt>
      <trkpt lat="49.82397" lon="4.83146">
        <ele>201.5</ele>
        <time>2021-04-23T12:18:41Z</time>
      </trkpt>
      <trkpt lat="49.82401" lon="4.8314">
        <ele>203.9</ele>
        <time>2021-04-23T12:18:44Z</time>
      </trkpt>
      <trkpt lat="49.82402" lon="4.83131">
        <ele>204.8</ele>
        <time>2021-04-23T12:18:46Z</time>
      </trkpt>
      <trkpt lat="49.82403" lon="4.83122">
        <ele>217.7</ele>
        <time>2021-04-23T12:18:49Z</time>
      </trkpt>
      <trkpt lat="49.82405" lon="4.83115">
        <ele>196.7</ele>
        <time>2021-04-23T12:18:52Z</time>
      </trkpt>
      <trkpt lat="49.82407" lon="4.83108">
        <ele>193.5</ele>
        <time>2021-04-23T12:18:54Z</time>
      </trkpt>
      <trkpt lat="49.82413" lon="4.83105">
        <ele>197.6</ele>
        <time>2021-04-23T12:18:57Z</time>
      </trkpt>
      <trkpt lat="49.82418" lon="4.83108">
        <ele>204.7</ele>
        <time>2021-04-23T12:18:59Z</time>
      </trkpt>
      <trkpt lat="49.82425" lon="4.83113">
        <ele>202.5</ele>
        <time>2021-04-23T12:19:01Z</time>
      </trkpt>
      <trkpt lat="49.82429" lon="4.83116">
        <ele>186.2</ele>
        <time>2021-04-23T12:19:02Z</time>
      </trkpt>
      <trkpt lat="49.82435" lon="4.8312">
        <ele>187.8</ele>
        <time>2021-04-23T12:19:04Z</time>
      </trkpt>
      <trkpt lat="49.82443" lon="4.83126">
        <ele>219.3</ele>
        <time>2021-04-23T12:19:06Z</time>
      </trkpt>
      <trkpt lat="49.82452" lon="4.83128">
        <ele>223.7</ele>
        <time>2021-04-23T12:19:08Z</time>
      </trkpt>
      <trkpt lat="49.82459" lon="4.83128">
        <ele>211.6</ele>
        <time>2021-04-23T12:19:11Z</time>
      </trkpt>
      <trkpt lat="49.82468" lon="4.83131">
        <ele>207.9</ele>
        <time>2021-04-23T12:19:13Z</time>
      </trkpt>
      <trkpt lat="49.82472" lon="4.83133">
        <ele>207</ele>
        <time>2021-04-23T12:19:15Z</time>
      </trkpt>
      <trkpt lat="49.82478" lon="4.83134">
        <ele>207.8</ele>
        <time>2021-04-23T12:19:16Z</time>
      </trkpt>
      <trkpt lat="49.82484" lon="4.83136">
        <ele>187.1</ele>
        <time>2021-04-23T12:19:18Z</time>
      </trkpt>
      <trkpt lat="49.82489" lon="4.83139">
        <ele>200.4</ele>
        <time>2021-04-23T12:19:20Z</time>
      </trkpt>
      <trkpt lat="49.82496" lon="4.83141">
        <ele>212.3</ele>
        <time>2021-04-23T12:19:23Z</time>
      </trkpt>
      <trkpt lat="49.82502" lon="4.83142">
        <ele>183.1</ele>
        <time>2021-04-23T12:19:25Z</time>
      </trkpt>
      <trkpt lat="49.82507" lon="4.83142">
        <ele>199.6</ele>
        <time>2021-04-23T12:19:26Z</time>
      </trkpt>
      <trkpt lat="49.82517" lon="4.83147">
        <ele>195.4</ele>
        <time>2021-04-23T12:19:30Z</time>
      </trkpt>
      <trkpt lat="49.82525" lon="4.83151">
        <ele>204.4</ele>
        <time>2021-04-23T12:19:32Z</time>
      </trkpt>
      <trkpt lat="49.82529" lon="4.83154">
        <ele>189.1</ele>
        <time>2021-04-23T12:19:34Z</time>
      </trkpt>
      <trkpt lat="49.82538" lon="4.83157">
        <ele>223.2</ele>
        <time>2021-04-23T12:19:37Z</time>
      </trkpt>
      <trkpt lat="49.82544" lon="4.83158">
        <ele>200.8</ele>
        <time>2021-04-23T12:19:39Z</time>
      </trkpt>
      <trkpt lat="49.8255" lon="4.8316">
        <ele>203</ele>
        <time>2021-04-23T12:19:41Z</time>
      </trkpt>
      <trkpt lat="49.82556" lon="4.83164">
        <ele>190.4</ele>
        <time>2021-04-23T12:19:43Z</time>
      </trkpt>
      <trkpt lat="49.82562" lon="4.83171">
        <ele>207.7</ele>
        <time>2021-04-23T12:19:45Z</time>
      </trkpt>
      <trkpt lat="49.82567" lon="4.83176">
        <ele>204.9</ele>
        <time>2021-04-23T12:19:48Z</time>
      </trkpt>
      <trkpt lat="49.82571" lon="4.83183">
        <ele>206</ele>
        <time>2021-04-23T12:19:50Z</time>
      </trkpt>
      <trkpt lat="49.82574" lon="4.83192">
        <ele>219.6</ele>
        <time>2021-04-23T12:19:52Z</time>
      </trkpt>
      <trkpt lat="49.82575" lon="4.83202">
        <ele>207.1</ele>
        <time>2021-04-23T12:19:54Z</time>
      </trkpt>
      <trkpt lat="49.82574" lon="4.83216">
        <ele>217.8</ele>
        <time>2021-04-23T12:19:56Z</time>
      </trkpt>
      <trkpt lat="49.82573" lon="4.83223">
        <ele>205.1</ele>
        <time>2021-04-23T12:19:58Z</time>
      </trkpt>
      <trkpt lat="49.82573" lon="4.83232">
        <ele>220.3</ele>
        <time>2021-04-23T12:20:00Z</time>
      </trkpt>
      <trkpt lat="49.82573" lon="4.83243">
        <ele>202.3</ele>
        <time>2021-04-23T12:20:03Z</time>
      </trkpt>
      <trkpt lat="49.82573" lon="4.83252">
        <ele>210</ele>
        <time>2021-04-23T12:20:06Z</time>
      </trkpt>
      <trkpt lat="49.82575" lon="4.83264">
        <ele>208</ele>
        <time>2021-04-23T12:20:10Z</time>
      </trkpt>
      <trkpt lat="49.82576" lon="4.83272">
        <ele>207.4</ele>
        <time>2021-04-23T12:20:12Z</time>
      </trkpt>
      <trkpt lat="49.82574" lon="4.83284">
        <ele>182.9</ele>
        <time>2021-04-23T12:20:16Z</time>
      </trkpt>
      <trkpt lat="49.82574" lon="4.83293">
        <ele>221.8</ele>
        <time>2021-04-23T12:20:20Z</time>
      </trkpt>
      <trkpt lat="49.8257" lon="4.83301">
        <ele>206.2</ele>
        <time>2021-04-23T12:20:26Z</time>
      </trkpt>
      <trkpt lat="49.82565" lon="4.83303">
        <ele>207.1</ele>
        <time>2021-04-23T12:20:27Z</time>
      </trkpt>
      <trkpt lat="49.82561" lon="4.83307">
        <ele>217.2</ele>
        <time>2021-04-23T12:20:31Z</time>
      </trkpt>
    </trkseg>
  </trk>
</gpx>